<?xml version="1.0" encoding="UTF-8" standalone="no" ?>
<gpx xmlns="http://www.topografix.com/GPX/1/1" xmlns:xsi="http://www.w3.org/2001/XMLSchema-instance" xsi:schemaLocation="http://www.topografix.com/GPX/1/1 http://www.topografix.com/GPX/1/1/gpx.xsd" version="1.1" creator="VisuGPX - https://www.visugpx.com">
  <metadata>
    <name>Boucle tabor en matheisine</name>
    <desc><![CDATA[File with points/tracks from Locus Map/4.10.0]]></desc>
  </metadata>
  <trk>
    <name><![CDATA[2022-06-30 09:52]]></name>
    <extensions>
      <line xmlns="http://www.topografix.com/GPX/gpx_style/0/2">
        <color>0000FF</color>
        <opacity>0.59</opacity>
        <width>6.0</width>
      </line>
    </extensions>
    <trkseg>
      <trkpt lat="44.9728" lon="5.82535">
        <ele>1494.15</ele>
        <time>2022-06-30T07:52:16.000Z</time>
      </trkpt>
      <trkpt lat="44.97292" lon="5.82528">
        <ele>1502.63</ele>
        <time>2022-06-30T07:52:26.000Z</time>
      </trkpt>
      <trkpt lat="44.97294" lon="5.82543">
        <ele>1508.53</ele>
        <time>2022-06-30T07:52:36.000Z</time>
      </trkpt>
      <trkpt lat="44.97286" lon="5.8255">
        <ele>1507.52</ele>
        <time>2022-06-30T07:52:46.000Z</time>
      </trkpt>
      <trkpt lat="44.97269" lon="5.82549">
        <ele>1504.1</ele>
        <time>2022-06-30T07:52:56.000Z</time>
      </trkpt>
      <trkpt lat="44.97258" lon="5.82539">
        <ele>1505.15</ele>
        <time>2022-06-30T07:53:06.000Z</time>
      </trkpt>
      <trkpt lat="44.97263" lon="5.82549">
        <ele>1505.48</ele>
        <time>2022-06-30T07:53:16.000Z</time>
      </trkpt>
      <trkpt lat="44.97261" lon="5.82568">
        <ele>1503.86</ele>
        <time>2022-06-30T07:53:26.000Z</time>
      </trkpt>
      <trkpt lat="44.97255" lon="5.82582">
        <ele>1502.89</ele>
        <time>2022-06-30T07:53:36.000Z</time>
      </trkpt>
      <trkpt lat="44.97249" lon="5.82607">
        <ele>1501.66</ele>
        <time>2022-06-30T07:53:46.000Z</time>
      </trkpt>
      <trkpt lat="44.97242" lon="5.82623">
        <ele>1502.63</ele>
        <time>2022-06-30T07:53:56.000Z</time>
      </trkpt>
      <trkpt lat="44.97239" lon="5.82647">
        <ele>1503.13</ele>
        <time>2022-06-30T07:54:06.000Z</time>
      </trkpt>
      <trkpt lat="44.97242" lon="5.82642">
        <ele>1499.52</ele>
        <time>2022-06-30T07:54:16.000Z</time>
      </trkpt>
      <trkpt lat="44.97242" lon="5.82647">
        <ele>1504.02</ele>
        <time>2022-06-30T07:54:26.000Z</time>
      </trkpt>
      <trkpt lat="44.97241" lon="5.82649">
        <ele>1502.71</ele>
        <time>2022-06-30T07:54:36.000Z</time>
      </trkpt>
      <trkpt lat="44.9724" lon="5.82661">
        <ele>1501.87</ele>
        <time>2022-06-30T07:54:46.000Z</time>
      </trkpt>
      <trkpt lat="44.97236" lon="5.82678">
        <ele>1503.15</ele>
        <time>2022-06-30T07:54:56.000Z</time>
      </trkpt>
      <trkpt lat="44.97231" lon="5.82698">
        <ele>1504.9</ele>
        <time>2022-06-30T07:55:06.000Z</time>
      </trkpt>
      <trkpt lat="44.97227" lon="5.82706">
        <ele>1508.17</ele>
        <time>2022-06-30T07:55:16.000Z</time>
      </trkpt>
      <trkpt lat="44.97236" lon="5.82722">
        <ele>1506.45</ele>
        <time>2022-06-30T07:55:26.000Z</time>
      </trkpt>
      <trkpt lat="44.97238" lon="5.82724">
        <ele>1502.47</ele>
        <time>2022-06-30T07:55:36.000Z</time>
      </trkpt>
      <trkpt lat="44.97237" lon="5.82729">
        <ele>1508</ele>
        <time>2022-06-30T07:55:46.000Z</time>
      </trkpt>
      <trkpt lat="44.97228" lon="5.82744">
        <ele>1519.09</ele>
        <time>2022-06-30T07:56:06.000Z</time>
      </trkpt>
      <trkpt lat="44.97253" lon="5.8275">
        <ele>1520.22</ele>
        <time>2022-06-30T07:56:18.000Z</time>
      </trkpt>
      <trkpt lat="44.97245" lon="5.82767">
        <ele>1527.08</ele>
        <time>2022-06-30T07:56:28.000Z</time>
      </trkpt>
      <trkpt lat="44.97247" lon="5.82782">
        <ele>1527.86</ele>
        <time>2022-06-30T07:56:38.000Z</time>
      </trkpt>
      <trkpt lat="44.97251" lon="5.82782">
        <ele>1531.14</ele>
        <time>2022-06-30T07:56:48.000Z</time>
      </trkpt>
      <trkpt lat="44.97254" lon="5.82786">
        <ele>1529.85</ele>
        <time>2022-06-30T07:56:58.000Z</time>
      </trkpt>
      <trkpt lat="44.97268" lon="5.82781">
        <ele>1528.96</ele>
        <time>2022-06-30T07:57:08.000Z</time>
      </trkpt>
      <trkpt lat="44.97278" lon="5.82786">
        <ele>1529.49</ele>
        <time>2022-06-30T07:57:22.000Z</time>
      </trkpt>
      <trkpt lat="44.97289" lon="5.82802">
        <ele>1527.76</ele>
        <time>2022-06-30T07:57:36.000Z</time>
      </trkpt>
      <trkpt lat="44.973" lon="5.82824">
        <ele>1534.84</ele>
        <time>2022-06-30T07:57:56.000Z</time>
      </trkpt>
      <trkpt lat="44.97305" lon="5.82819">
        <ele>1541.17</ele>
        <time>2022-06-30T07:58:06.000Z</time>
      </trkpt>
      <trkpt lat="44.97303" lon="5.82823">
        <ele>1540.46</ele>
        <time>2022-06-30T07:58:17.000Z</time>
      </trkpt>
      <trkpt lat="44.97318" lon="5.82827">
        <ele>1545.47</ele>
        <time>2022-06-30T07:58:27.000Z</time>
      </trkpt>
      <trkpt lat="44.97317" lon="5.82832">
        <ele>1546.9</ele>
        <time>2022-06-30T07:58:37.000Z</time>
      </trkpt>
      <trkpt lat="44.97323" lon="5.82833">
        <ele>1545.64</ele>
        <time>2022-06-30T07:58:47.000Z</time>
      </trkpt>
      <trkpt lat="44.97323" lon="5.82837">
        <ele>1544.05</ele>
        <time>2022-06-30T07:58:57.000Z</time>
      </trkpt>
      <trkpt lat="44.97323" lon="5.8284">
        <ele>1544.4</ele>
        <time>2022-06-30T07:59:35.000Z</time>
      </trkpt>
      <trkpt lat="44.9733" lon="5.82854">
        <ele>1548.4</ele>
        <time>2022-06-30T07:59:45.000Z</time>
      </trkpt>
      <trkpt lat="44.97346" lon="5.82865">
        <ele>1550.96</ele>
        <time>2022-06-30T07:59:55.000Z</time>
      </trkpt>
      <trkpt lat="44.97353" lon="5.82866">
        <ele>1551.39</ele>
        <time>2022-06-30T08:00:05.000Z</time>
      </trkpt>
      <trkpt lat="44.97354" lon="5.82867">
        <ele>1553.08</ele>
        <time>2022-06-30T08:00:26.000Z</time>
      </trkpt>
      <trkpt lat="44.97379" lon="5.82894">
        <ele>1548.89</ele>
        <time>2022-06-30T08:00:43.000Z</time>
      </trkpt>
      <trkpt lat="44.97388" lon="5.82911">
        <ele>1551.46</ele>
        <time>2022-06-30T08:00:53.000Z</time>
      </trkpt>
      <trkpt lat="44.97393" lon="5.82914">
        <ele>1560.08</ele>
        <time>2022-06-30T08:01:03.000Z</time>
      </trkpt>
      <trkpt lat="44.97391" lon="5.82919">
        <ele>1561.33</ele>
        <time>2022-06-30T08:01:13.000Z</time>
      </trkpt>
      <trkpt lat="44.97386" lon="5.8291">
        <ele>1567.68</ele>
        <time>2022-06-30T08:01:44.000Z</time>
      </trkpt>
      <trkpt lat="44.97358" lon="5.82981">
        <ele>1584.39</ele>
        <time>2022-06-30T08:04:32.000Z</time>
      </trkpt>
      <trkpt lat="44.97362" lon="5.82983">
        <ele>1580.99</ele>
        <time>2022-06-30T08:04:42.000Z</time>
      </trkpt>
      <trkpt lat="44.97379" lon="5.82984">
        <ele>1580.86</ele>
        <time>2022-06-30T08:04:52.000Z</time>
      </trkpt>
      <trkpt lat="44.97406" lon="5.82981">
        <ele>1580.42</ele>
        <time>2022-06-30T08:05:05.000Z</time>
      </trkpt>
      <trkpt lat="44.9742" lon="5.8307">
        <ele>1583.6</ele>
        <time>2022-06-30T08:06:09.000Z</time>
      </trkpt>
      <trkpt lat="44.97432" lon="5.83195">
        <ele>1601.78</ele>
        <time>2022-06-30T08:07:44.000Z</time>
      </trkpt>
      <trkpt lat="44.97434" lon="5.83196">
        <ele>1603.52</ele>
        <time>2022-06-30T08:07:54.000Z</time>
      </trkpt>
      <trkpt lat="44.97443" lon="5.8323">
        <ele>1609.47</ele>
        <time>2022-06-30T08:08:12.000Z</time>
      </trkpt>
      <trkpt lat="44.97463" lon="5.83245">
        <ele>1617.04</ele>
        <time>2022-06-30T08:08:22.000Z</time>
      </trkpt>
      <trkpt lat="44.97463" lon="5.83255">
        <ele>1613.18</ele>
        <time>2022-06-30T08:08:32.000Z</time>
      </trkpt>
      <trkpt lat="44.9746" lon="5.8327">
        <ele>1615.25</ele>
        <time>2022-06-30T08:08:42.000Z</time>
      </trkpt>
      <trkpt lat="44.97461" lon="5.83282">
        <ele>1618.55</ele>
        <time>2022-06-30T08:08:52.000Z</time>
      </trkpt>
      <trkpt lat="44.97454" lon="5.83293">
        <ele>1614.6</ele>
        <time>2022-06-30T08:09:02.000Z</time>
      </trkpt>
      <trkpt lat="44.97445" lon="5.83309">
        <ele>1612.93</ele>
        <time>2022-06-30T08:09:13.000Z</time>
      </trkpt>
      <trkpt lat="44.97449" lon="5.83328">
        <ele>1611.96</ele>
        <time>2022-06-30T08:09:29.000Z</time>
      </trkpt>
      <trkpt lat="44.97479" lon="5.83334">
        <ele>1612.05</ele>
        <time>2022-06-30T08:09:53.000Z</time>
      </trkpt>
      <trkpt lat="44.97497" lon="5.83392">
        <ele>1624.76</ele>
        <time>2022-06-30T08:11:03.000Z</time>
      </trkpt>
      <trkpt lat="44.97558" lon="5.83525">
        <ele>1656.35</ele>
        <time>2022-06-30T08:12:54.000Z</time>
      </trkpt>
      <trkpt lat="44.97544" lon="5.83543">
        <ele>1662.88</ele>
        <time>2022-06-30T08:13:04.000Z</time>
      </trkpt>
      <trkpt lat="44.97547" lon="5.83574">
        <ele>1671.65</ele>
        <time>2022-06-30T08:13:22.000Z</time>
      </trkpt>
      <trkpt lat="44.97558" lon="5.8358">
        <ele>1671.44</ele>
        <time>2022-06-30T08:13:32.000Z</time>
      </trkpt>
      <trkpt lat="44.97551" lon="5.83581">
        <ele>1672.36</ele>
        <time>2022-06-30T08:13:42.000Z</time>
      </trkpt>
      <trkpt lat="44.97553" lon="5.83593">
        <ele>1672.02</ele>
        <time>2022-06-30T08:13:52.000Z</time>
      </trkpt>
      <trkpt lat="44.97558" lon="5.83605">
        <ele>1672.23</ele>
        <time>2022-06-30T08:14:02.000Z</time>
      </trkpt>
      <trkpt lat="44.9756" lon="5.83616">
        <ele>1671.51</ele>
        <time>2022-06-30T08:14:12.000Z</time>
      </trkpt>
      <trkpt lat="44.97551" lon="5.83789">
        <ele>1681.99</ele>
        <time>2022-06-30T08:16:43.000Z</time>
      </trkpt>
      <trkpt lat="44.97562" lon="5.83807">
        <ele>1689.42</ele>
        <time>2022-06-30T08:16:53.000Z</time>
      </trkpt>
      <trkpt lat="44.97565" lon="5.83816">
        <ele>1692.83</ele>
        <time>2022-06-30T08:17:17.000Z</time>
      </trkpt>
      <trkpt lat="44.97564" lon="5.83808">
        <ele>1693.72</ele>
        <time>2022-06-30T08:17:27.000Z</time>
      </trkpt>
      <trkpt lat="44.97563" lon="5.83809">
        <ele>1693.31</ele>
        <time>2022-06-30T08:17:37.000Z</time>
      </trkpt>
      <trkpt lat="44.97565" lon="5.83809">
        <ele>1695</ele>
        <time>2022-06-30T08:20:09.000Z</time>
      </trkpt>
      <trkpt lat="44.9766" lon="5.83905">
        <ele>1722.86</ele>
        <time>2022-06-30T08:21:46.000Z</time>
      </trkpt>
      <trkpt lat="44.97664" lon="5.83916">
        <ele>1736.66</ele>
        <time>2022-06-30T08:21:56.000Z</time>
      </trkpt>
      <trkpt lat="44.97667" lon="5.83924">
        <ele>1737.73</ele>
        <time>2022-06-30T08:22:06.000Z</time>
      </trkpt>
      <trkpt lat="44.97678" lon="5.83929">
        <ele>1737.15</ele>
        <time>2022-06-30T08:22:16.000Z</time>
      </trkpt>
      <trkpt lat="44.97684" lon="5.83955">
        <ele>1736.64</ele>
        <time>2022-06-30T08:22:40.000Z</time>
      </trkpt>
      <trkpt lat="44.97694" lon="5.83957">
        <ele>1738.63</ele>
        <time>2022-06-30T08:22:50.000Z</time>
      </trkpt>
      <trkpt lat="44.97698" lon="5.83954">
        <ele>1739.69</ele>
        <time>2022-06-30T08:23:00.000Z</time>
      </trkpt>
      <trkpt lat="44.97695" lon="5.83957">
        <ele>1742.78</ele>
        <time>2022-06-30T08:23:19.000Z</time>
      </trkpt>
      <trkpt lat="44.97695" lon="5.83958">
        <ele>1742.94</ele>
        <time>2022-06-30T08:24:16.000Z</time>
      </trkpt>
      <trkpt lat="44.97754" lon="5.84037">
        <ele>1760.99</ele>
        <time>2022-06-30T08:25:13.000Z</time>
      </trkpt>
      <trkpt lat="44.9777" lon="5.84069">
        <ele>1764.85</ele>
        <time>2022-06-30T08:25:46.000Z</time>
      </trkpt>
      <trkpt lat="44.97777" lon="5.84067">
        <ele>1758.61</ele>
        <time>2022-06-30T08:25:56.000Z</time>
      </trkpt>
      <trkpt lat="44.97788" lon="5.84069">
        <ele>1764.64</ele>
        <time>2022-06-30T08:26:06.000Z</time>
      </trkpt>
      <trkpt lat="44.97801" lon="5.84071">
        <ele>1767.74</ele>
        <time>2022-06-30T08:26:16.000Z</time>
      </trkpt>
      <trkpt lat="44.97822" lon="5.84102">
        <ele>1776.52</ele>
        <time>2022-06-30T08:27:04.000Z</time>
      </trkpt>
      <trkpt lat="44.97827" lon="5.8411">
        <ele>1773.38</ele>
        <time>2022-06-30T08:27:14.000Z</time>
      </trkpt>
      <trkpt lat="44.97839" lon="5.84103">
        <ele>1774.24</ele>
        <time>2022-06-30T08:27:24.000Z</time>
      </trkpt>
      <trkpt lat="44.97844" lon="5.8411">
        <ele>1770.05</ele>
        <time>2022-06-30T08:27:34.000Z</time>
      </trkpt>
      <trkpt lat="44.9785" lon="5.84108">
        <ele>1774.45</ele>
        <time>2022-06-30T08:27:44.000Z</time>
      </trkpt>
      <trkpt lat="44.97854" lon="5.84116">
        <ele>1777.6</ele>
        <time>2022-06-30T08:27:54.000Z</time>
      </trkpt>
      <trkpt lat="44.97888" lon="5.84125">
        <ele>1784.92</ele>
        <time>2022-06-30T08:28:42.000Z</time>
      </trkpt>
      <trkpt lat="44.97914" lon="5.8413">
        <ele>1794.49</ele>
        <time>2022-06-30T08:29:18.000Z</time>
      </trkpt>
      <trkpt lat="44.97928" lon="5.84146">
        <ele>1797.51</ele>
        <time>2022-06-30T08:29:37.000Z</time>
      </trkpt>
      <trkpt lat="44.97928" lon="5.84155">
        <ele>1800.92</ele>
        <time>2022-06-30T08:29:47.000Z</time>
      </trkpt>
      <trkpt lat="44.97934" lon="5.8416">
        <ele>1801.42</ele>
        <time>2022-06-30T08:29:57.000Z</time>
      </trkpt>
      <trkpt lat="44.97941" lon="5.84157">
        <ele>1811.95</ele>
        <time>2022-06-30T08:30:07.000Z</time>
      </trkpt>
      <trkpt lat="44.9794" lon="5.84159">
        <ele>1811.22</ele>
        <time>2022-06-30T08:30:17.000Z</time>
      </trkpt>
      <trkpt lat="44.97943" lon="5.84157">
        <ele>1809.43</ele>
        <time>2022-06-30T08:30:34.000Z</time>
      </trkpt>
      <trkpt lat="44.97961" lon="5.84151">
        <ele>1812</ele>
        <time>2022-06-30T08:30:44.000Z</time>
      </trkpt>
      <trkpt lat="44.97972" lon="5.84154">
        <ele>1810.15</ele>
        <time>2022-06-30T08:30:54.000Z</time>
      </trkpt>
      <trkpt lat="44.97983" lon="5.84149">
        <ele>1804.26</ele>
        <time>2022-06-30T08:31:04.000Z</time>
      </trkpt>
      <trkpt lat="44.97985" lon="5.84169">
        <ele>1801.63</ele>
        <time>2022-06-30T08:31:31.000Z</time>
      </trkpt>
      <trkpt lat="44.97985" lon="5.84172">
        <ele>1802.21</ele>
        <time>2022-06-30T08:31:41.000Z</time>
      </trkpt>
      <trkpt lat="44.97988" lon="5.84174">
        <ele>1805.09</ele>
        <time>2022-06-30T08:31:51.000Z</time>
      </trkpt>
      <trkpt lat="44.9799" lon="5.84174">
        <ele>1805.79</ele>
        <time>2022-06-30T08:32:38.000Z</time>
      </trkpt>
      <trkpt lat="44.98014" lon="5.84172">
        <ele>1816.77</ele>
        <time>2022-06-30T08:32:48.000Z</time>
      </trkpt>
      <trkpt lat="44.9802" lon="5.84181">
        <ele>1815.71</ele>
        <time>2022-06-30T08:32:58.000Z</time>
      </trkpt>
      <trkpt lat="44.98034" lon="5.8419">
        <ele>1817.5</ele>
        <time>2022-06-30T08:33:08.000Z</time>
      </trkpt>
      <trkpt lat="44.98047" lon="5.84191">
        <ele>1824.62</ele>
        <time>2022-06-30T08:33:18.000Z</time>
      </trkpt>
      <trkpt lat="44.9805" lon="5.84192">
        <ele>1825.89</ele>
        <time>2022-06-30T08:33:28.000Z</time>
      </trkpt>
      <trkpt lat="44.98052" lon="5.84194">
        <ele>1828.11</ele>
        <time>2022-06-30T08:33:38.000Z</time>
      </trkpt>
      <trkpt lat="44.98058" lon="5.8419">
        <ele>1830.28</ele>
        <time>2022-06-30T08:33:48.000Z</time>
      </trkpt>
      <trkpt lat="44.98082" lon="5.84187">
        <ele>1832.19</ele>
        <time>2022-06-30T08:33:58.000Z</time>
      </trkpt>
      <trkpt lat="44.98087" lon="5.84192">
        <ele>1833.03</ele>
        <time>2022-06-30T08:34:08.000Z</time>
      </trkpt>
      <trkpt lat="44.98089" lon="5.84197">
        <ele>1832.04</ele>
        <time>2022-06-30T08:34:18.000Z</time>
      </trkpt>
      <trkpt lat="44.98092" lon="5.84208">
        <ele>1835.49</ele>
        <time>2022-06-30T08:34:28.000Z</time>
      </trkpt>
      <trkpt lat="44.98087" lon="5.84217">
        <ele>1833.96</ele>
        <time>2022-06-30T08:34:38.000Z</time>
      </trkpt>
      <trkpt lat="44.98084" lon="5.8422">
        <ele>1831.84</ele>
        <time>2022-06-30T08:34:48.000Z</time>
      </trkpt>
      <trkpt lat="44.98089" lon="5.84222">
        <ele>1837.04</ele>
        <time>2022-06-30T08:34:58.000Z</time>
      </trkpt>
      <trkpt lat="44.98089" lon="5.84223">
        <ele>1837.89</ele>
        <time>2022-06-30T08:36:07.000Z</time>
      </trkpt>
      <trkpt lat="44.98119" lon="5.84245">
        <ele>1841.94</ele>
        <time>2022-06-30T08:36:17.000Z</time>
      </trkpt>
      <trkpt lat="44.98124" lon="5.8426">
        <ele>1846.86</ele>
        <time>2022-06-30T08:36:27.000Z</time>
      </trkpt>
      <trkpt lat="44.98135" lon="5.84266">
        <ele>1851.99</ele>
        <time>2022-06-30T08:36:37.000Z</time>
      </trkpt>
      <trkpt lat="44.98125" lon="5.84279">
        <ele>1851.07</ele>
        <time>2022-06-30T08:36:47.000Z</time>
      </trkpt>
      <trkpt lat="44.98137" lon="5.84286">
        <ele>1849.8</ele>
        <time>2022-06-30T08:36:57.000Z</time>
      </trkpt>
      <trkpt lat="44.98136" lon="5.84284">
        <ele>1858.83</ele>
        <time>2022-06-30T08:37:07.000Z</time>
      </trkpt>
      <trkpt lat="44.98133" lon="5.84291">
        <ele>1853.91</ele>
        <time>2022-06-30T08:37:17.000Z</time>
      </trkpt>
      <trkpt lat="44.98134" lon="5.84291">
        <ele>1854.81</ele>
        <time>2022-06-30T08:37:27.000Z</time>
      </trkpt>
      <trkpt lat="44.98134" lon="5.84292">
        <ele>1854.93</ele>
        <time>2022-06-30T08:37:43.000Z</time>
      </trkpt>
      <trkpt lat="44.98134" lon="5.84295">
        <ele>1854.43</ele>
        <time>2022-06-30T08:38:20.000Z</time>
      </trkpt>
      <trkpt lat="44.98138" lon="5.84316">
        <ele>1848.15</ele>
        <time>2022-06-30T08:38:30.000Z</time>
      </trkpt>
      <trkpt lat="44.98136" lon="5.8434">
        <ele>1858.15</ele>
        <time>2022-06-30T08:38:40.000Z</time>
      </trkpt>
      <trkpt lat="44.98144" lon="5.84352">
        <ele>1858.97</ele>
        <time>2022-06-30T08:38:50.000Z</time>
      </trkpt>
      <trkpt lat="44.98141" lon="5.84365">
        <ele>1858.76</ele>
        <time>2022-06-30T08:39:00.000Z</time>
      </trkpt>
      <trkpt lat="44.98144" lon="5.84372">
        <ele>1865.27</ele>
        <time>2022-06-30T08:39:11.000Z</time>
      </trkpt>
      <trkpt lat="44.98151" lon="5.84373">
        <ele>1867.36</ele>
        <time>2022-06-30T08:39:21.000Z</time>
      </trkpt>
      <trkpt lat="44.98161" lon="5.84374">
        <ele>1869.2</ele>
        <time>2022-06-30T08:39:31.000Z</time>
      </trkpt>
      <trkpt lat="44.98168" lon="5.84374">
        <ele>1871.41</ele>
        <time>2022-06-30T08:39:41.000Z</time>
      </trkpt>
      <trkpt lat="44.9818" lon="5.84372">
        <ele>1872.43</ele>
        <time>2022-06-30T08:39:51.000Z</time>
      </trkpt>
      <trkpt lat="44.9819" lon="5.84374">
        <ele>1870.21</ele>
        <time>2022-06-30T08:40:01.000Z</time>
      </trkpt>
      <trkpt lat="44.98179" lon="5.84387">
        <ele>1869.99</ele>
        <time>2022-06-30T08:40:11.000Z</time>
      </trkpt>
      <trkpt lat="44.98174" lon="5.84406">
        <ele>1869.8</ele>
        <time>2022-06-30T08:40:33.000Z</time>
      </trkpt>
      <trkpt lat="44.98186" lon="5.8442">
        <ele>1869.87</ele>
        <time>2022-06-30T08:41:01.000Z</time>
      </trkpt>
      <trkpt lat="44.98205" lon="5.84404">
        <ele>1874.34</ele>
        <time>2022-06-30T08:41:11.000Z</time>
      </trkpt>
      <trkpt lat="44.98199" lon="5.84382">
        <ele>1876.63</ele>
        <time>2022-06-30T08:41:21.000Z</time>
      </trkpt>
      <trkpt lat="44.98193" lon="5.84392">
        <ele>1876.47</ele>
        <time>2022-06-30T08:41:31.000Z</time>
      </trkpt>
      <trkpt lat="44.98193" lon="5.84407">
        <ele>1878.93</ele>
        <time>2022-06-30T08:41:41.000Z</time>
      </trkpt>
      <trkpt lat="44.98193" lon="5.84424">
        <ele>1884.55</ele>
        <time>2022-06-30T08:41:51.000Z</time>
      </trkpt>
      <trkpt lat="44.98194" lon="5.84425">
        <ele>1884.76</ele>
        <time>2022-06-30T08:42:01.000Z</time>
      </trkpt>
      <trkpt lat="44.98194" lon="5.84427">
        <ele>1884.37</ele>
        <time>2022-06-30T08:42:34.000Z</time>
      </trkpt>
      <trkpt lat="44.98205" lon="5.84452">
        <ele>1894.49</ele>
        <time>2022-06-30T08:42:44.000Z</time>
      </trkpt>
      <trkpt lat="44.98218" lon="5.8447">
        <ele>1906.3</ele>
        <time>2022-06-30T08:42:54.000Z</time>
      </trkpt>
      <trkpt lat="44.98221" lon="5.84475">
        <ele>1912.58</ele>
        <time>2022-06-30T08:43:04.000Z</time>
      </trkpt>
      <trkpt lat="44.98203" lon="5.84487">
        <ele>1919.35</ele>
        <time>2022-06-30T08:43:19.000Z</time>
      </trkpt>
      <trkpt lat="44.98199" lon="5.84479">
        <ele>1924.94</ele>
        <time>2022-06-30T08:43:29.000Z</time>
      </trkpt>
      <trkpt lat="44.98197" lon="5.84482">
        <ele>1921.95</ele>
        <time>2022-06-30T08:44:03.000Z</time>
      </trkpt>
      <trkpt lat="44.98205" lon="5.84478">
        <ele>1919.02</ele>
        <time>2022-06-30T08:44:13.000Z</time>
      </trkpt>
      <trkpt lat="44.98209" lon="5.84478">
        <ele>1916.2</ele>
        <time>2022-06-30T08:44:23.000Z</time>
      </trkpt>
      <trkpt lat="44.98208" lon="5.84478">
        <ele>1917.06</ele>
        <time>2022-06-30T08:44:41.000Z</time>
      </trkpt>
      <trkpt lat="44.98209" lon="5.8448">
        <ele>1917.1</ele>
        <time>2022-06-30T08:45:01.000Z</time>
      </trkpt>
      <trkpt lat="44.98231" lon="5.8449">
        <ele>1918.03</ele>
        <time>2022-06-30T08:45:11.000Z</time>
      </trkpt>
      <trkpt lat="44.98271" lon="5.84492">
        <ele>1918.72</ele>
        <time>2022-06-30T08:45:25.000Z</time>
      </trkpt>
      <trkpt lat="44.98275" lon="5.8451">
        <ele>1917.14</ele>
        <time>2022-06-30T08:45:36.000Z</time>
      </trkpt>
      <trkpt lat="44.98275" lon="5.84521">
        <ele>1918.01</ele>
        <time>2022-06-30T08:45:46.000Z</time>
      </trkpt>
      <trkpt lat="44.98291" lon="5.84525">
        <ele>1916.39</ele>
        <time>2022-06-30T08:45:56.000Z</time>
      </trkpt>
      <trkpt lat="44.98302" lon="5.84517">
        <ele>1916.44</ele>
        <time>2022-06-30T08:46:06.000Z</time>
      </trkpt>
      <trkpt lat="44.98332" lon="5.84514">
        <ele>1910.51</ele>
        <time>2022-06-30T08:46:34.000Z</time>
      </trkpt>
      <trkpt lat="44.98337" lon="5.84509">
        <ele>1908.15</ele>
        <time>2022-06-30T08:46:51.000Z</time>
      </trkpt>
      <trkpt lat="44.9836" lon="5.84501">
        <ele>1913.63</ele>
        <time>2022-06-30T08:47:08.000Z</time>
      </trkpt>
      <trkpt lat="44.98357" lon="5.84505">
        <ele>1912.71</ele>
        <time>2022-06-30T08:47:18.000Z</time>
      </trkpt>
      <trkpt lat="44.98353" lon="5.84503">
        <ele>1917.95</ele>
        <time>2022-06-30T08:47:28.000Z</time>
      </trkpt>
      <trkpt lat="44.98356" lon="5.84501">
        <ele>1918.19</ele>
        <time>2022-06-30T08:47:38.000Z</time>
      </trkpt>
      <trkpt lat="44.98356" lon="5.845">
        <ele>1918.3</ele>
        <time>2022-06-30T08:47:55.000Z</time>
      </trkpt>
      <trkpt lat="44.98357" lon="5.845">
        <ele>1918.2</ele>
        <time>2022-06-30T08:49:20.000Z</time>
      </trkpt>
      <trkpt lat="44.98363" lon="5.84472">
        <ele>1916.26</ele>
        <time>2022-06-30T08:49:30.000Z</time>
      </trkpt>
      <trkpt lat="44.98375" lon="5.84461">
        <ele>1910.62</ele>
        <time>2022-06-30T08:49:40.000Z</time>
      </trkpt>
      <trkpt lat="44.98373" lon="5.84466">
        <ele>1911.42</ele>
        <time>2022-06-30T08:49:50.000Z</time>
      </trkpt>
      <trkpt lat="44.98372" lon="5.84468">
        <ele>1910.92</ele>
        <time>2022-06-30T08:50:00.000Z</time>
      </trkpt>
      <trkpt lat="44.98373" lon="5.84468">
        <ele>1912.29</ele>
        <time>2022-06-30T08:50:10.000Z</time>
      </trkpt>
      <trkpt lat="44.98372" lon="5.8447">
        <ele>1910.71</ele>
        <time>2022-06-30T08:52:16.000Z</time>
      </trkpt>
      <trkpt lat="44.9837" lon="5.84486">
        <ele>1911.26</ele>
        <time>2022-06-30T08:52:26.000Z</time>
      </trkpt>
      <trkpt lat="44.98372" lon="5.84486">
        <ele>1910.56</ele>
        <time>2022-06-30T08:52:36.000Z</time>
      </trkpt>
      <trkpt lat="44.98371" lon="5.84481">
        <ele>1906.88</ele>
        <time>2022-06-30T08:52:46.000Z</time>
      </trkpt>
      <trkpt lat="44.9837" lon="5.8448">
        <ele>1900.15</ele>
        <time>2022-06-30T08:52:56.000Z</time>
      </trkpt>
      <trkpt lat="44.98364" lon="5.84478">
        <ele>1907.17</ele>
        <time>2022-06-30T08:53:12.000Z</time>
      </trkpt>
      <trkpt lat="44.98362" lon="5.84483">
        <ele>1905.79</ele>
        <time>2022-06-30T08:53:22.000Z</time>
      </trkpt>
      <trkpt lat="44.98369" lon="5.84482">
        <ele>1909.95</ele>
        <time>2022-06-30T08:53:32.000Z</time>
      </trkpt>
      <trkpt lat="44.98368" lon="5.84486">
        <ele>1907.37</ele>
        <time>2022-06-30T08:53:42.000Z</time>
      </trkpt>
      <trkpt lat="44.98368" lon="5.84486">
        <ele>1907.17</ele>
        <time>2022-06-30T08:53:53.000Z</time>
      </trkpt>
      <trkpt lat="44.98368" lon="5.84487">
        <ele>1906.69</ele>
        <time>2022-06-30T08:59:50.000Z</time>
      </trkpt>
      <trkpt lat="44.98366" lon="5.84488">
        <ele>1905.47</ele>
        <time>2022-06-30T09:01:21.000Z</time>
      </trkpt>
      <trkpt lat="44.98315" lon="5.84499">
        <ele>1915.11</ele>
        <time>2022-06-30T09:01:31.000Z</time>
      </trkpt>
      <trkpt lat="44.98287" lon="5.84505">
        <ele>1913.19</ele>
        <time>2022-06-30T09:01:41.000Z</time>
      </trkpt>
      <trkpt lat="44.98269" lon="5.84514">
        <ele>1910.54</ele>
        <time>2022-06-30T09:01:51.000Z</time>
      </trkpt>
      <trkpt lat="44.98259" lon="5.84515">
        <ele>1910.04</ele>
        <time>2022-06-30T09:02:01.000Z</time>
      </trkpt>
      <trkpt lat="44.98248" lon="5.84505">
        <ele>1915.31</ele>
        <time>2022-06-30T09:02:11.000Z</time>
      </trkpt>
      <trkpt lat="44.98243" lon="5.84499">
        <ele>1918.44</ele>
        <time>2022-06-30T09:02:21.000Z</time>
      </trkpt>
      <trkpt lat="44.98231" lon="5.84489">
        <ele>1916.69</ele>
        <time>2022-06-30T09:02:31.000Z</time>
      </trkpt>
      <trkpt lat="44.98221" lon="5.84496">
        <ele>1915.27</ele>
        <time>2022-06-30T09:02:41.000Z</time>
      </trkpt>
      <trkpt lat="44.98211" lon="5.8449">
        <ele>1912.11</ele>
        <time>2022-06-30T09:02:51.000Z</time>
      </trkpt>
      <trkpt lat="44.98209" lon="5.84485">
        <ele>1912.63</ele>
        <time>2022-06-30T09:03:01.000Z</time>
      </trkpt>
      <trkpt lat="44.98218" lon="5.84499">
        <ele>1911.34</ele>
        <time>2022-06-30T09:03:11.000Z</time>
      </trkpt>
      <trkpt lat="44.98213" lon="5.84518">
        <ele>1910.69</ele>
        <time>2022-06-30T09:03:21.000Z</time>
      </trkpt>
      <trkpt lat="44.98213" lon="5.84528">
        <ele>1911.31</ele>
        <time>2022-06-30T09:03:31.000Z</time>
      </trkpt>
      <trkpt lat="44.98213" lon="5.84526">
        <ele>1912.65</ele>
        <time>2022-06-30T09:03:41.000Z</time>
      </trkpt>
      <trkpt lat="44.98218" lon="5.84542">
        <ele>1909.57</ele>
        <time>2022-06-30T09:03:51.000Z</time>
      </trkpt>
      <trkpt lat="44.98221" lon="5.84559">
        <ele>1910.79</ele>
        <time>2022-06-30T09:04:01.000Z</time>
      </trkpt>
      <trkpt lat="44.98229" lon="5.84578">
        <ele>1913.17</ele>
        <time>2022-06-30T09:04:11.000Z</time>
      </trkpt>
      <trkpt lat="44.9823" lon="5.84594">
        <ele>1910.14</ele>
        <time>2022-06-30T09:04:21.000Z</time>
      </trkpt>
      <trkpt lat="44.98234" lon="5.84608">
        <ele>1913.73</ele>
        <time>2022-06-30T09:04:31.000Z</time>
      </trkpt>
      <trkpt lat="44.98231" lon="5.84619">
        <ele>1912.69</ele>
        <time>2022-06-30T09:04:41.000Z</time>
      </trkpt>
      <trkpt lat="44.98236" lon="5.84625">
        <ele>1912.02</ele>
        <time>2022-06-30T09:04:51.000Z</time>
      </trkpt>
      <trkpt lat="44.98233" lon="5.84634">
        <ele>1911.42</ele>
        <time>2022-06-30T09:05:03.000Z</time>
      </trkpt>
      <trkpt lat="44.98234" lon="5.84635">
        <ele>1913.14</ele>
        <time>2022-06-30T09:05:14.000Z</time>
      </trkpt>
      <trkpt lat="44.9825" lon="5.84632">
        <ele>1922.31</ele>
        <time>2022-06-30T09:05:24.000Z</time>
      </trkpt>
      <trkpt lat="44.98257" lon="5.84634">
        <ele>1921.03</ele>
        <time>2022-06-30T09:05:34.000Z</time>
      </trkpt>
      <trkpt lat="44.98259" lon="5.8464">
        <ele>1923.96</ele>
        <time>2022-06-30T09:05:44.000Z</time>
      </trkpt>
      <trkpt lat="44.98259" lon="5.84643">
        <ele>1923.36</ele>
        <time>2022-06-30T09:05:54.000Z</time>
      </trkpt>
      <trkpt lat="44.98259" lon="5.84645">
        <ele>1925.24</ele>
        <time>2022-06-30T09:06:04.000Z</time>
      </trkpt>
      <trkpt lat="44.98261" lon="5.84645">
        <ele>1925.76</ele>
        <time>2022-06-30T09:06:28.000Z</time>
      </trkpt>
      <trkpt lat="44.98271" lon="5.84652">
        <ele>1923.25</ele>
        <time>2022-06-30T09:06:38.000Z</time>
      </trkpt>
      <trkpt lat="44.98272" lon="5.84656">
        <ele>1927.42</ele>
        <time>2022-06-30T09:06:48.000Z</time>
      </trkpt>
      <trkpt lat="44.98277" lon="5.84656">
        <ele>1930.65</ele>
        <time>2022-06-30T09:06:58.000Z</time>
      </trkpt>
      <trkpt lat="44.98279" lon="5.84654">
        <ele>1933.19</ele>
        <time>2022-06-30T09:07:08.000Z</time>
      </trkpt>
      <trkpt lat="44.9828" lon="5.84656">
        <ele>1935.37</ele>
        <time>2022-06-30T09:07:48.000Z</time>
      </trkpt>
      <trkpt lat="44.98281" lon="5.84673">
        <ele>1946.9</ele>
        <time>2022-06-30T09:07:58.000Z</time>
      </trkpt>
      <trkpt lat="44.98294" lon="5.84669">
        <ele>1944.83</ele>
        <time>2022-06-30T09:08:08.000Z</time>
      </trkpt>
      <trkpt lat="44.98301" lon="5.84675">
        <ele>1942.56</ele>
        <time>2022-06-30T09:08:18.000Z</time>
      </trkpt>
      <trkpt lat="44.98308" lon="5.8468">
        <ele>1940.77</ele>
        <time>2022-06-30T09:08:28.000Z</time>
      </trkpt>
      <trkpt lat="44.9831" lon="5.84687">
        <ele>1941.97</ele>
        <time>2022-06-30T09:08:38.000Z</time>
      </trkpt>
      <trkpt lat="44.98314" lon="5.84695">
        <ele>1936.9</ele>
        <time>2022-06-30T09:08:48.000Z</time>
      </trkpt>
      <trkpt lat="44.98324" lon="5.84703">
        <ele>1940.52</ele>
        <time>2022-06-30T09:08:58.000Z</time>
      </trkpt>
      <trkpt lat="44.9833" lon="5.84703">
        <ele>1947.3</ele>
        <time>2022-06-30T09:09:08.000Z</time>
      </trkpt>
      <trkpt lat="44.98331" lon="5.84708">
        <ele>1946.37</ele>
        <time>2022-06-30T09:09:18.000Z</time>
      </trkpt>
      <trkpt lat="44.98334" lon="5.8471">
        <ele>1948.8</ele>
        <time>2022-06-30T09:09:28.000Z</time>
      </trkpt>
      <trkpt lat="44.98337" lon="5.8471">
        <ele>1952.52</ele>
        <time>2022-06-30T09:09:38.000Z</time>
      </trkpt>
      <trkpt lat="44.98338" lon="5.84711">
        <ele>1952.46</ele>
        <time>2022-06-30T09:09:54.000Z</time>
      </trkpt>
      <trkpt lat="44.98339" lon="5.8472">
        <ele>1953.57</ele>
        <time>2022-06-30T09:10:04.000Z</time>
      </trkpt>
      <trkpt lat="44.98342" lon="5.84736">
        <ele>1952.93</ele>
        <time>2022-06-30T09:10:14.000Z</time>
      </trkpt>
      <trkpt lat="44.98342" lon="5.84756">
        <ele>1948.39</ele>
        <time>2022-06-30T09:10:24.000Z</time>
      </trkpt>
      <trkpt lat="44.98335" lon="5.84779">
        <ele>1950.58</ele>
        <time>2022-06-30T09:10:34.000Z</time>
      </trkpt>
      <trkpt lat="44.98331" lon="5.84786">
        <ele>1948.94</ele>
        <time>2022-06-30T09:10:44.000Z</time>
      </trkpt>
      <trkpt lat="44.98327" lon="5.84788">
        <ele>1939.81</ele>
        <time>2022-06-30T09:10:54.000Z</time>
      </trkpt>
      <trkpt lat="44.98314" lon="5.84795">
        <ele>1940.76</ele>
        <time>2022-06-30T09:11:04.000Z</time>
      </trkpt>
      <trkpt lat="44.98303" lon="5.84799">
        <ele>1942.39</ele>
        <time>2022-06-30T09:11:14.000Z</time>
      </trkpt>
      <trkpt lat="44.98299" lon="5.84803">
        <ele>1952.76</ele>
        <time>2022-06-30T09:11:25.000Z</time>
      </trkpt>
      <trkpt lat="44.98287" lon="5.84809">
        <ele>1957.32</ele>
        <time>2022-06-30T09:11:35.000Z</time>
      </trkpt>
      <trkpt lat="44.98277" lon="5.84816">
        <ele>1957.63</ele>
        <time>2022-06-30T09:11:45.000Z</time>
      </trkpt>
      <trkpt lat="44.98274" lon="5.84814">
        <ele>1960.64</ele>
        <time>2022-06-30T09:11:55.000Z</time>
      </trkpt>
      <trkpt lat="44.9827" lon="5.84816">
        <ele>1964.08</ele>
        <time>2022-06-30T09:12:05.000Z</time>
      </trkpt>
      <trkpt lat="44.98269" lon="5.84816">
        <ele>1964.34</ele>
        <time>2022-06-30T09:12:33.000Z</time>
      </trkpt>
      <trkpt lat="44.98268" lon="5.84817">
        <ele>1964.5</ele>
        <time>2022-06-30T09:12:45.000Z</time>
      </trkpt>
      <trkpt lat="44.98251" lon="5.84824">
        <ele>1967.44</ele>
        <time>2022-06-30T09:12:55.000Z</time>
      </trkpt>
      <trkpt lat="44.98245" lon="5.84824">
        <ele>1961.94</ele>
        <time>2022-06-30T09:13:05.000Z</time>
      </trkpt>
      <trkpt lat="44.98242" lon="5.84825">
        <ele>1963.23</ele>
        <time>2022-06-30T09:13:15.000Z</time>
      </trkpt>
      <trkpt lat="44.98241" lon="5.84826">
        <ele>1964.74</ele>
        <time>2022-06-30T09:13:25.000Z</time>
      </trkpt>
      <trkpt lat="44.98239" lon="5.84828">
        <ele>1966.25</ele>
        <time>2022-06-30T09:13:50.000Z</time>
      </trkpt>
      <trkpt lat="44.98224" lon="5.84831">
        <ele>1967.57</ele>
        <time>2022-06-30T09:14:00.000Z</time>
      </trkpt>
      <trkpt lat="44.98217" lon="5.84836">
        <ele>1965.71</ele>
        <time>2022-06-30T09:14:10.000Z</time>
      </trkpt>
      <trkpt lat="44.98206" lon="5.84837">
        <ele>1971.42</ele>
        <time>2022-06-30T09:14:20.000Z</time>
      </trkpt>
      <trkpt lat="44.98198" lon="5.84841">
        <ele>1974.28</ele>
        <time>2022-06-30T09:14:30.000Z</time>
      </trkpt>
      <trkpt lat="44.98187" lon="5.8483">
        <ele>1976.27</ele>
        <time>2022-06-30T09:14:40.000Z</time>
      </trkpt>
      <trkpt lat="44.98186" lon="5.84825">
        <ele>1977.75</ele>
        <time>2022-06-30T09:14:50.000Z</time>
      </trkpt>
      <trkpt lat="44.98184" lon="5.84827">
        <ele>1981.35</ele>
        <time>2022-06-30T09:15:01.000Z</time>
      </trkpt>
      <trkpt lat="44.98184" lon="5.84827">
        <ele>1981.32</ele>
        <time>2022-06-30T09:15:12.000Z</time>
      </trkpt>
      <trkpt lat="44.98178" lon="5.84828">
        <ele>1984.67</ele>
        <time>2022-06-30T09:15:22.000Z</time>
      </trkpt>
      <trkpt lat="44.98161" lon="5.84829">
        <ele>1988.75</ele>
        <time>2022-06-30T09:15:32.000Z</time>
      </trkpt>
      <trkpt lat="44.98159" lon="5.84823">
        <ele>1986.16</ele>
        <time>2022-06-30T09:15:42.000Z</time>
      </trkpt>
      <trkpt lat="44.98155" lon="5.84824">
        <ele>1989.45</ele>
        <time>2022-06-30T09:15:52.000Z</time>
      </trkpt>
      <trkpt lat="44.98137" lon="5.84826">
        <ele>1995.67</ele>
        <time>2022-06-30T09:16:02.000Z</time>
      </trkpt>
      <trkpt lat="44.98122" lon="5.84825">
        <ele>1992.48</ele>
        <time>2022-06-30T09:16:12.000Z</time>
      </trkpt>
      <trkpt lat="44.98107" lon="5.8482">
        <ele>1994.2</ele>
        <time>2022-06-30T09:16:22.000Z</time>
      </trkpt>
      <trkpt lat="44.98093" lon="5.84823">
        <ele>1994.75</ele>
        <time>2022-06-30T09:16:32.000Z</time>
      </trkpt>
      <trkpt lat="44.98082" lon="5.84827">
        <ele>2001.31</ele>
        <time>2022-06-30T09:16:42.000Z</time>
      </trkpt>
      <trkpt lat="44.98076" lon="5.84828">
        <ele>2001.18</ele>
        <time>2022-06-30T09:16:52.000Z</time>
      </trkpt>
      <trkpt lat="44.98068" lon="5.84829">
        <ele>2000.22</ele>
        <time>2022-06-30T09:17:02.000Z</time>
      </trkpt>
      <trkpt lat="44.98063" lon="5.84826">
        <ele>1999.12</ele>
        <time>2022-06-30T09:17:12.000Z</time>
      </trkpt>
      <trkpt lat="44.98067" lon="5.84828">
        <ele>1999.86</ele>
        <time>2022-06-30T09:17:22.000Z</time>
      </trkpt>
      <trkpt lat="44.98065" lon="5.84827">
        <ele>2001.77</ele>
        <time>2022-06-30T09:21:00.000Z</time>
      </trkpt>
      <trkpt lat="44.98044" lon="5.84824">
        <ele>2000.19</ele>
        <time>2022-06-30T09:21:10.000Z</time>
      </trkpt>
      <trkpt lat="44.98024" lon="5.84824">
        <ele>2002.93</ele>
        <time>2022-06-30T09:21:20.000Z</time>
      </trkpt>
      <trkpt lat="44.98015" lon="5.84821">
        <ele>2003.86</ele>
        <time>2022-06-30T09:21:30.000Z</time>
      </trkpt>
      <trkpt lat="44.97999" lon="5.84814">
        <ele>2000.46</ele>
        <time>2022-06-30T09:21:40.000Z</time>
      </trkpt>
      <trkpt lat="44.97997" lon="5.84802">
        <ele>2001.91</ele>
        <time>2022-06-30T09:21:50.000Z</time>
      </trkpt>
      <trkpt lat="44.97991" lon="5.84801">
        <ele>1999.89</ele>
        <time>2022-06-30T09:22:00.000Z</time>
      </trkpt>
      <trkpt lat="44.97976" lon="5.84805">
        <ele>1998.54</ele>
        <time>2022-06-30T09:22:10.000Z</time>
      </trkpt>
      <trkpt lat="44.97963" lon="5.84802">
        <ele>2000.86</ele>
        <time>2022-06-30T09:22:20.000Z</time>
      </trkpt>
      <trkpt lat="44.97952" lon="5.84796">
        <ele>1998.8</ele>
        <time>2022-06-30T09:22:30.000Z</time>
      </trkpt>
      <trkpt lat="44.97948" lon="5.84799">
        <ele>1995.65</ele>
        <time>2022-06-30T09:22:40.000Z</time>
      </trkpt>
      <trkpt lat="44.97942" lon="5.84805">
        <ele>1992.9</ele>
        <time>2022-06-30T09:22:50.000Z</time>
      </trkpt>
      <trkpt lat="44.97936" lon="5.84804">
        <ele>1991.09</ele>
        <time>2022-06-30T09:23:00.000Z</time>
      </trkpt>
      <trkpt lat="44.9793" lon="5.84805">
        <ele>1995.43</ele>
        <time>2022-06-30T09:23:10.000Z</time>
      </trkpt>
      <trkpt lat="44.97928" lon="5.84807">
        <ele>2001.55</ele>
        <time>2022-06-30T09:23:20.000Z</time>
      </trkpt>
      <trkpt lat="44.97923" lon="5.84806">
        <ele>1998.82</ele>
        <time>2022-06-30T09:23:30.000Z</time>
      </trkpt>
      <trkpt lat="44.97915" lon="5.84813">
        <ele>1994.24</ele>
        <time>2022-06-30T09:23:40.000Z</time>
      </trkpt>
      <trkpt lat="44.97917" lon="5.84815">
        <ele>1995.51</ele>
        <time>2022-06-30T09:23:50.000Z</time>
      </trkpt>
      <trkpt lat="44.97917" lon="5.84813">
        <ele>1996.01</ele>
        <time>2022-06-30T09:24:00.000Z</time>
      </trkpt>
      <trkpt lat="44.97915" lon="5.84815">
        <ele>1998.35</ele>
        <time>2022-06-30T09:24:10.000Z</time>
      </trkpt>
      <trkpt lat="44.97912" lon="5.84816">
        <ele>1998.99</ele>
        <time>2022-06-30T09:24:20.000Z</time>
      </trkpt>
      <trkpt lat="44.97909" lon="5.84816">
        <ele>2003.16</ele>
        <time>2022-06-30T09:24:30.000Z</time>
      </trkpt>
      <trkpt lat="44.97906" lon="5.84816">
        <ele>2005.74</ele>
        <time>2022-06-30T09:24:40.000Z</time>
      </trkpt>
      <trkpt lat="44.97905" lon="5.84816">
        <ele>2006.65</ele>
        <time>2022-06-30T09:25:02.000Z</time>
      </trkpt>
      <trkpt lat="44.97897" lon="5.84812">
        <ele>2006.47</ele>
        <time>2022-06-30T09:25:12.000Z</time>
      </trkpt>
      <trkpt lat="44.97883" lon="5.84811">
        <ele>2006.87</ele>
        <time>2022-06-30T09:25:22.000Z</time>
      </trkpt>
      <trkpt lat="44.97874" lon="5.84813">
        <ele>2008.51</ele>
        <time>2022-06-30T09:25:32.000Z</time>
      </trkpt>
      <trkpt lat="44.9787" lon="5.84817">
        <ele>2008.35</ele>
        <time>2022-06-30T09:25:42.000Z</time>
      </trkpt>
      <trkpt lat="44.9787" lon="5.84819">
        <ele>2010.41</ele>
        <time>2022-06-30T09:26:20.000Z</time>
      </trkpt>
      <trkpt lat="44.97859" lon="5.84831">
        <ele>2005.05</ele>
        <time>2022-06-30T09:26:30.000Z</time>
      </trkpt>
      <trkpt lat="44.97849" lon="5.84841">
        <ele>2002.57</ele>
        <time>2022-06-30T09:26:40.000Z</time>
      </trkpt>
      <trkpt lat="44.97843" lon="5.84839">
        <ele>2009.44</ele>
        <time>2022-06-30T09:26:50.000Z</time>
      </trkpt>
      <trkpt lat="44.97833" lon="5.84843">
        <ele>2012.25</ele>
        <time>2022-06-30T09:27:00.000Z</time>
      </trkpt>
      <trkpt lat="44.97833" lon="5.84845">
        <ele>2012.99</ele>
        <time>2022-06-30T09:27:10.000Z</time>
      </trkpt>
      <trkpt lat="44.97832" lon="5.84847">
        <ele>2014.14</ele>
        <time>2022-06-30T09:27:20.000Z</time>
      </trkpt>
      <trkpt lat="44.97831" lon="5.84849">
        <ele>2013.17</ele>
        <time>2022-06-30T09:28:28.000Z</time>
      </trkpt>
      <trkpt lat="44.97824" lon="5.84855">
        <ele>2013.71</ele>
        <time>2022-06-30T09:28:38.000Z</time>
      </trkpt>
      <trkpt lat="44.97821" lon="5.84856">
        <ele>2016.16</ele>
        <time>2022-06-30T09:28:48.000Z</time>
      </trkpt>
      <trkpt lat="44.97818" lon="5.84859">
        <ele>2019.6</ele>
        <time>2022-06-30T09:28:58.000Z</time>
      </trkpt>
      <trkpt lat="44.9781" lon="5.8486">
        <ele>2024.43</ele>
        <time>2022-06-30T09:29:08.000Z</time>
      </trkpt>
      <trkpt lat="44.97812" lon="5.84873">
        <ele>2028.35</ele>
        <time>2022-06-30T09:29:18.000Z</time>
      </trkpt>
      <trkpt lat="44.97811" lon="5.84877">
        <ele>2030.97</ele>
        <time>2022-06-30T09:29:28.000Z</time>
      </trkpt>
      <trkpt lat="44.9781" lon="5.8488">
        <ele>2034.13</ele>
        <time>2022-06-30T09:29:38.000Z</time>
      </trkpt>
      <trkpt lat="44.97811" lon="5.84881">
        <ele>2034.65</ele>
        <time>2022-06-30T09:30:24.000Z</time>
      </trkpt>
      <trkpt lat="44.97808" lon="5.84883">
        <ele>2032.98</ele>
        <time>2022-06-30T09:30:41.000Z</time>
      </trkpt>
      <trkpt lat="44.97798" lon="5.84904">
        <ele>2044.72</ele>
        <time>2022-06-30T09:30:51.000Z</time>
      </trkpt>
      <trkpt lat="44.97794" lon="5.8492">
        <ele>2061.65</ele>
        <time>2022-06-30T09:31:01.000Z</time>
      </trkpt>
      <trkpt lat="44.97793" lon="5.84921">
        <ele>2059.43</ele>
        <time>2022-06-30T09:31:11.000Z</time>
      </trkpt>
      <trkpt lat="44.97794" lon="5.8492">
        <ele>2063.26</ele>
        <time>2022-06-30T09:31:31.000Z</time>
      </trkpt>
      <trkpt lat="44.97793" lon="5.84922">
        <ele>2063.64</ele>
        <time>2022-06-30T09:34:48.000Z</time>
      </trkpt>
      <trkpt lat="44.97786" lon="5.84958">
        <ele>2072.14</ele>
        <time>2022-06-30T09:34:58.000Z</time>
      </trkpt>
      <trkpt lat="44.97782" lon="5.84981">
        <ele>2080.89</ele>
        <time>2022-06-30T09:35:08.000Z</time>
      </trkpt>
      <trkpt lat="44.97781" lon="5.84973">
        <ele>2076.23</ele>
        <time>2022-06-30T09:35:18.000Z</time>
      </trkpt>
      <trkpt lat="44.97781" lon="5.84976">
        <ele>2077.87</ele>
        <time>2022-06-30T09:35:28.000Z</time>
      </trkpt>
      <trkpt lat="44.97781" lon="5.84977">
        <ele>2080.17</ele>
        <time>2022-06-30T09:35:45.000Z</time>
      </trkpt>
      <trkpt lat="44.97786" lon="5.84994">
        <ele>2073.45</ele>
        <time>2022-06-30T09:35:55.000Z</time>
      </trkpt>
      <trkpt lat="44.97788" lon="5.85">
        <ele>2068.55</ele>
        <time>2022-06-30T09:36:05.000Z</time>
      </trkpt>
      <trkpt lat="44.97788" lon="5.85001">
        <ele>2070.15</ele>
        <time>2022-06-30T09:36:15.000Z</time>
      </trkpt>
      <trkpt lat="44.97788" lon="5.85004">
        <ele>2070.35</ele>
        <time>2022-06-30T09:36:34.000Z</time>
      </trkpt>
      <trkpt lat="44.97791" lon="5.8502">
        <ele>2073.12</ele>
        <time>2022-06-30T09:36:44.000Z</time>
      </trkpt>
      <trkpt lat="44.97793" lon="5.85035">
        <ele>2081.9</ele>
        <time>2022-06-30T09:36:54.000Z</time>
      </trkpt>
      <trkpt lat="44.97786" lon="5.85042">
        <ele>2087.79</ele>
        <time>2022-06-30T09:37:04.000Z</time>
      </trkpt>
      <trkpt lat="44.9778" lon="5.85046">
        <ele>2094.08</ele>
        <time>2022-06-30T09:37:14.000Z</time>
      </trkpt>
      <trkpt lat="44.97781" lon="5.85046">
        <ele>2097.76</ele>
        <time>2022-06-30T09:37:24.000Z</time>
      </trkpt>
      <trkpt lat="44.97781" lon="5.85047">
        <ele>2097.96</ele>
        <time>2022-06-30T09:37:58.000Z</time>
      </trkpt>
      <trkpt lat="44.9778" lon="5.85047">
        <ele>2097.93</ele>
        <time>2022-06-30T09:38:22.000Z</time>
      </trkpt>
      <trkpt lat="44.97777" lon="5.85055">
        <ele>2099.13</ele>
        <time>2022-06-30T09:38:32.000Z</time>
      </trkpt>
      <trkpt lat="44.97777" lon="5.8506">
        <ele>2101.09</ele>
        <time>2022-06-30T09:38:42.000Z</time>
      </trkpt>
      <trkpt lat="44.97777" lon="5.85061">
        <ele>2102.6</ele>
        <time>2022-06-30T09:39:10.000Z</time>
      </trkpt>
      <trkpt lat="44.97779" lon="5.85062">
        <ele>2103.56</ele>
        <time>2022-06-30T09:39:37.000Z</time>
      </trkpt>
      <trkpt lat="44.97782" lon="5.85076">
        <ele>2104.66</ele>
        <time>2022-06-30T09:39:47.000Z</time>
      </trkpt>
      <trkpt lat="44.97782" lon="5.85102">
        <ele>2108.1</ele>
        <time>2022-06-30T09:39:57.000Z</time>
      </trkpt>
      <trkpt lat="44.97783" lon="5.85106">
        <ele>2116.72</ele>
        <time>2022-06-30T09:40:07.000Z</time>
      </trkpt>
      <trkpt lat="44.97781" lon="5.85103">
        <ele>2117.55</ele>
        <time>2022-06-30T09:40:17.000Z</time>
      </trkpt>
      <trkpt lat="44.97783" lon="5.85103">
        <ele>2120.06</ele>
        <time>2022-06-30T09:40:27.000Z</time>
      </trkpt>
      <trkpt lat="44.97784" lon="5.85105">
        <ele>2121.19</ele>
        <time>2022-06-30T09:42:26.000Z</time>
      </trkpt>
      <trkpt lat="44.97789" lon="5.85121">
        <ele>2121.78</ele>
        <time>2022-06-30T09:42:36.000Z</time>
      </trkpt>
      <trkpt lat="44.97794" lon="5.8513">
        <ele>2131.81</ele>
        <time>2022-06-30T09:42:46.000Z</time>
      </trkpt>
      <trkpt lat="44.97796" lon="5.85131">
        <ele>2135.53</ele>
        <time>2022-06-30T09:42:56.000Z</time>
      </trkpt>
      <trkpt lat="44.97797" lon="5.85131">
        <ele>2136.11</ele>
        <time>2022-06-30T09:43:13.000Z</time>
      </trkpt>
      <trkpt lat="44.97807" lon="5.85137">
        <ele>2147.72</ele>
        <time>2022-06-30T09:43:23.000Z</time>
      </trkpt>
      <trkpt lat="44.97811" lon="5.85139">
        <ele>2149.17</ele>
        <time>2022-06-30T09:43:33.000Z</time>
      </trkpt>
      <trkpt lat="44.97813" lon="5.8514">
        <ele>2153.56</ele>
        <time>2022-06-30T09:43:43.000Z</time>
      </trkpt>
      <trkpt lat="44.97814" lon="5.85141">
        <ele>2154.98</ele>
        <time>2022-06-30T09:44:07.000Z</time>
      </trkpt>
      <trkpt lat="44.9782" lon="5.85157">
        <ele>2157.31</ele>
        <time>2022-06-30T09:44:17.000Z</time>
      </trkpt>
      <trkpt lat="44.97828" lon="5.85157">
        <ele>2166.3</ele>
        <time>2022-06-30T09:44:27.000Z</time>
      </trkpt>
      <trkpt lat="44.97834" lon="5.85154">
        <ele>2171.04</ele>
        <time>2022-06-30T09:44:37.000Z</time>
      </trkpt>
      <trkpt lat="44.97836" lon="5.8516">
        <ele>2170.84</ele>
        <time>2022-06-30T09:44:47.000Z</time>
      </trkpt>
      <trkpt lat="44.97839" lon="5.85161">
        <ele>2175.35</ele>
        <time>2022-06-30T09:44:57.000Z</time>
      </trkpt>
      <trkpt lat="44.97844" lon="5.85167">
        <ele>2173.06</ele>
        <time>2022-06-30T09:45:07.000Z</time>
      </trkpt>
      <trkpt lat="44.97843" lon="5.85167">
        <ele>2171.31</ele>
        <time>2022-06-30T09:45:17.000Z</time>
      </trkpt>
      <trkpt lat="44.97845" lon="5.85166">
        <ele>2172.03</ele>
        <time>2022-06-30T09:45:27.000Z</time>
      </trkpt>
      <trkpt lat="44.97846" lon="5.85165">
        <ele>2172.7</ele>
        <time>2022-06-30T09:45:37.000Z</time>
      </trkpt>
      <trkpt lat="44.97847" lon="5.85165">
        <ele>2172.42</ele>
        <time>2022-06-30T09:46:19.000Z</time>
      </trkpt>
      <trkpt lat="44.97849" lon="5.85163">
        <ele>2179.03</ele>
        <time>2022-06-30T09:46:29.000Z</time>
      </trkpt>
      <trkpt lat="44.9785" lon="5.85163">
        <ele>2179.45</ele>
        <time>2022-06-30T09:46:56.000Z</time>
      </trkpt>
      <trkpt lat="44.9786" lon="5.85169">
        <ele>2183.4</ele>
        <time>2022-06-30T09:47:06.000Z</time>
      </trkpt>
      <trkpt lat="44.97866" lon="5.85176">
        <ele>2182.51</ele>
        <time>2022-06-30T09:47:16.000Z</time>
      </trkpt>
      <trkpt lat="44.97867" lon="5.85172">
        <ele>2177.24</ele>
        <time>2022-06-30T09:47:26.000Z</time>
      </trkpt>
      <trkpt lat="44.97868" lon="5.85172">
        <ele>2175.2</ele>
        <time>2022-06-30T09:47:36.000Z</time>
      </trkpt>
      <trkpt lat="44.97868" lon="5.85174">
        <ele>2177.92</ele>
        <time>2022-06-30T09:47:58.000Z</time>
      </trkpt>
      <trkpt lat="44.97869" lon="5.85185">
        <ele>2183.66</ele>
        <time>2022-06-30T09:48:08.000Z</time>
      </trkpt>
      <trkpt lat="44.97876" lon="5.85199">
        <ele>2186.51</ele>
        <time>2022-06-30T09:48:18.000Z</time>
      </trkpt>
      <trkpt lat="44.97875" lon="5.85197">
        <ele>2187.18</ele>
        <time>2022-06-30T09:48:28.000Z</time>
      </trkpt>
      <trkpt lat="44.9788" lon="5.85202">
        <ele>2189.3</ele>
        <time>2022-06-30T09:48:38.000Z</time>
      </trkpt>
      <trkpt lat="44.97891" lon="5.85212">
        <ele>2197.7</ele>
        <time>2022-06-30T09:48:48.000Z</time>
      </trkpt>
      <trkpt lat="44.97898" lon="5.85218">
        <ele>2193.81</ele>
        <time>2022-06-30T09:48:58.000Z</time>
      </trkpt>
      <trkpt lat="44.97901" lon="5.85229">
        <ele>2196.7</ele>
        <time>2022-06-30T09:49:08.000Z</time>
      </trkpt>
      <trkpt lat="44.97909" lon="5.85235">
        <ele>2198.34</ele>
        <time>2022-06-30T09:49:18.000Z</time>
      </trkpt>
      <trkpt lat="44.97912" lon="5.85241">
        <ele>2199.03</ele>
        <time>2022-06-30T09:49:28.000Z</time>
      </trkpt>
      <trkpt lat="44.97913" lon="5.85244">
        <ele>2198.67</ele>
        <time>2022-06-30T09:49:38.000Z</time>
      </trkpt>
      <trkpt lat="44.97917" lon="5.85265">
        <ele>2199.68</ele>
        <time>2022-06-30T09:49:48.000Z</time>
      </trkpt>
      <trkpt lat="44.9792" lon="5.85266">
        <ele>2201.72</ele>
        <time>2022-06-30T09:49:58.000Z</time>
      </trkpt>
      <trkpt lat="44.9792" lon="5.8527">
        <ele>2202.34</ele>
        <time>2022-06-30T09:50:08.000Z</time>
      </trkpt>
      <trkpt lat="44.97925" lon="5.85282">
        <ele>2201.94</ele>
        <time>2022-06-30T09:50:18.000Z</time>
      </trkpt>
      <trkpt lat="44.97931" lon="5.85288">
        <ele>2207.69</ele>
        <time>2022-06-30T09:50:28.000Z</time>
      </trkpt>
      <trkpt lat="44.97928" lon="5.85284">
        <ele>2209.85</ele>
        <time>2022-06-30T09:50:38.000Z</time>
      </trkpt>
      <trkpt lat="44.97931" lon="5.85284">
        <ele>2211.04</ele>
        <time>2022-06-30T09:50:48.000Z</time>
      </trkpt>
      <trkpt lat="44.97933" lon="5.85284">
        <ele>2210.52</ele>
        <time>2022-06-30T09:50:58.000Z</time>
      </trkpt>
      <trkpt lat="44.97947" lon="5.85288">
        <ele>2212.55</ele>
        <time>2022-06-30T09:51:08.000Z</time>
      </trkpt>
      <trkpt lat="44.9795" lon="5.85296">
        <ele>2213.47</ele>
        <time>2022-06-30T09:51:18.000Z</time>
      </trkpt>
      <trkpt lat="44.97953" lon="5.85297">
        <ele>2213.04</ele>
        <time>2022-06-30T09:51:28.000Z</time>
      </trkpt>
      <trkpt lat="44.97965" lon="5.85295">
        <ele>2217.65</ele>
        <time>2022-06-30T09:51:38.000Z</time>
      </trkpt>
      <trkpt lat="44.97966" lon="5.85296">
        <ele>2217.88</ele>
        <time>2022-06-30T09:51:48.000Z</time>
      </trkpt>
      <trkpt lat="44.97968" lon="5.85298">
        <ele>2218.4</ele>
        <time>2022-06-30T09:51:58.000Z</time>
      </trkpt>
      <trkpt lat="44.97977" lon="5.85304">
        <ele>2215.84</ele>
        <time>2022-06-30T09:52:08.000Z</time>
      </trkpt>
      <trkpt lat="44.97981" lon="5.85309">
        <ele>2210.79</ele>
        <time>2022-06-30T09:52:18.000Z</time>
      </trkpt>
      <trkpt lat="44.97984" lon="5.85311">
        <ele>2211.46</ele>
        <time>2022-06-30T09:52:28.000Z</time>
      </trkpt>
      <trkpt lat="44.97986" lon="5.8532">
        <ele>2212.42</ele>
        <time>2022-06-30T09:52:38.000Z</time>
      </trkpt>
      <trkpt lat="44.97988" lon="5.85325">
        <ele>2212.46</ele>
        <time>2022-06-30T09:52:48.000Z</time>
      </trkpt>
      <trkpt lat="44.97989" lon="5.85326">
        <ele>2213.62</ele>
        <time>2022-06-30T09:52:58.000Z</time>
      </trkpt>
      <trkpt lat="44.97988" lon="5.85328">
        <ele>2213.82</ele>
        <time>2022-06-30T09:53:08.000Z</time>
      </trkpt>
      <trkpt lat="44.9799" lon="5.85341">
        <ele>2221.77</ele>
        <time>2022-06-30T09:53:18.000Z</time>
      </trkpt>
      <trkpt lat="44.97995" lon="5.85345">
        <ele>2228.44</ele>
        <time>2022-06-30T09:53:29.000Z</time>
      </trkpt>
      <trkpt lat="44.98001" lon="5.85349">
        <ele>2233.58</ele>
        <time>2022-06-30T09:53:39.000Z</time>
      </trkpt>
      <trkpt lat="44.98001" lon="5.85356">
        <ele>2235.1</ele>
        <time>2022-06-30T09:53:49.000Z</time>
      </trkpt>
      <trkpt lat="44.98006" lon="5.85361">
        <ele>2243.38</ele>
        <time>2022-06-30T09:53:59.000Z</time>
      </trkpt>
      <trkpt lat="44.9801" lon="5.85365">
        <ele>2249.99</ele>
        <time>2022-06-30T09:54:09.000Z</time>
      </trkpt>
      <trkpt lat="44.98012" lon="5.85368">
        <ele>2249.5</ele>
        <time>2022-06-30T09:54:41.000Z</time>
      </trkpt>
      <trkpt lat="44.98014" lon="5.85383">
        <ele>2244.34</ele>
        <time>2022-06-30T09:54:51.000Z</time>
      </trkpt>
      <trkpt lat="44.98025" lon="5.85396">
        <ele>2245.18</ele>
        <time>2022-06-30T09:55:01.000Z</time>
      </trkpt>
      <trkpt lat="44.98037" lon="5.85398">
        <ele>2247.99</ele>
        <time>2022-06-30T09:55:11.000Z</time>
      </trkpt>
      <trkpt lat="44.9804" lon="5.85398">
        <ele>2249.29</ele>
        <time>2022-06-30T09:55:21.000Z</time>
      </trkpt>
      <trkpt lat="44.98045" lon="5.85404">
        <ele>2252.4</ele>
        <time>2022-06-30T09:55:31.000Z</time>
      </trkpt>
      <trkpt lat="44.98046" lon="5.85407">
        <ele>2250.93</ele>
        <time>2022-06-30T09:55:41.000Z</time>
      </trkpt>
      <trkpt lat="44.98047" lon="5.85406">
        <ele>2253.3</ele>
        <time>2022-06-30T09:55:51.000Z</time>
      </trkpt>
      <trkpt lat="44.98048" lon="5.85407">
        <ele>2253.88</ele>
        <time>2022-06-30T09:56:11.000Z</time>
      </trkpt>
      <trkpt lat="44.98053" lon="5.85419">
        <ele>2254.28</ele>
        <time>2022-06-30T09:56:21.000Z</time>
      </trkpt>
      <trkpt lat="44.98049" lon="5.85424">
        <ele>2258.29</ele>
        <time>2022-06-30T09:56:31.000Z</time>
      </trkpt>
      <trkpt lat="44.9805" lon="5.85433">
        <ele>2258.2</ele>
        <time>2022-06-30T09:56:41.000Z</time>
      </trkpt>
      <trkpt lat="44.9805" lon="5.85435">
        <ele>2258.73</ele>
        <time>2022-06-30T09:56:51.000Z</time>
      </trkpt>
      <trkpt lat="44.9805" lon="5.85438">
        <ele>2260.18</ele>
        <time>2022-06-30T09:57:01.000Z</time>
      </trkpt>
      <trkpt lat="44.98049" lon="5.85442">
        <ele>2262.4</ele>
        <time>2022-06-30T09:57:11.000Z</time>
      </trkpt>
      <trkpt lat="44.9805" lon="5.85449">
        <ele>2261.29</ele>
        <time>2022-06-30T09:57:21.000Z</time>
      </trkpt>
      <trkpt lat="44.98049" lon="5.85454">
        <ele>2260.55</ele>
        <time>2022-06-30T09:57:31.000Z</time>
      </trkpt>
      <trkpt lat="44.98049" lon="5.85458">
        <ele>2255.51</ele>
        <time>2022-06-30T09:57:41.000Z</time>
      </trkpt>
      <trkpt lat="44.98047" lon="5.85465">
        <ele>2254.45</ele>
        <time>2022-06-30T09:57:51.000Z</time>
      </trkpt>
      <trkpt lat="44.98047" lon="5.8547">
        <ele>2258.25</ele>
        <time>2022-06-30T09:58:01.000Z</time>
      </trkpt>
      <trkpt lat="44.98048" lon="5.85471">
        <ele>2258.08</ele>
        <time>2022-06-30T09:58:12.000Z</time>
      </trkpt>
      <trkpt lat="44.98047" lon="5.85473">
        <ele>2257.85</ele>
        <time>2022-06-30T09:58:24.000Z</time>
      </trkpt>
      <trkpt lat="44.98058" lon="5.85497">
        <ele>2266.56</ele>
        <time>2022-06-30T09:58:34.000Z</time>
      </trkpt>
      <trkpt lat="44.98067" lon="5.85508">
        <ele>2274.81</ele>
        <time>2022-06-30T09:58:44.000Z</time>
      </trkpt>
      <trkpt lat="44.98066" lon="5.85515">
        <ele>2276.52</ele>
        <time>2022-06-30T09:58:54.000Z</time>
      </trkpt>
      <trkpt lat="44.98059" lon="5.85509">
        <ele>2279.37</ele>
        <time>2022-06-30T09:59:04.000Z</time>
      </trkpt>
      <trkpt lat="44.98056" lon="5.85513">
        <ele>2278.72</ele>
        <time>2022-06-30T09:59:14.000Z</time>
      </trkpt>
      <trkpt lat="44.98055" lon="5.85517">
        <ele>2279.17</ele>
        <time>2022-06-30T09:59:24.000Z</time>
      </trkpt>
      <trkpt lat="44.98056" lon="5.85522">
        <ele>2278.55</ele>
        <time>2022-06-30T09:59:34.000Z</time>
      </trkpt>
      <trkpt lat="44.98057" lon="5.8553">
        <ele>2277.91</ele>
        <time>2022-06-30T09:59:44.000Z</time>
      </trkpt>
      <trkpt lat="44.98061" lon="5.85532">
        <ele>2278.83</ele>
        <time>2022-06-30T09:59:54.000Z</time>
      </trkpt>
      <trkpt lat="44.98063" lon="5.85533">
        <ele>2279.02</ele>
        <time>2022-06-30T10:00:04.000Z</time>
      </trkpt>
      <trkpt lat="44.98063" lon="5.85535">
        <ele>2278.28</ele>
        <time>2022-06-30T10:00:32.000Z</time>
      </trkpt>
      <trkpt lat="44.98063" lon="5.85532">
        <ele>2279.71</ele>
        <time>2022-06-30T10:00:42.000Z</time>
      </trkpt>
      <trkpt lat="44.98067" lon="5.85532">
        <ele>2282.18</ele>
        <time>2022-06-30T10:00:52.000Z</time>
      </trkpt>
      <trkpt lat="44.98067" lon="5.8553">
        <ele>2283.27</ele>
        <time>2022-06-30T10:01:09.000Z</time>
      </trkpt>
      <trkpt lat="44.98066" lon="5.85529">
        <ele>2282.53</ele>
        <time>2022-06-30T10:02:02.000Z</time>
      </trkpt>
      <trkpt lat="44.98062" lon="5.85528">
        <ele>2280.07</ele>
        <time>2022-06-30T10:02:12.000Z</time>
      </trkpt>
      <trkpt lat="44.9806" lon="5.85527">
        <ele>2280.18</ele>
        <time>2022-06-30T10:03:02.000Z</time>
      </trkpt>
      <trkpt lat="44.98048" lon="5.85523">
        <ele>2277.53</ele>
        <time>2022-06-30T10:03:12.000Z</time>
      </trkpt>
      <trkpt lat="44.98036" lon="5.85514">
        <ele>2284.77</ele>
        <time>2022-06-30T10:03:22.000Z</time>
      </trkpt>
      <trkpt lat="44.98031" lon="5.85512">
        <ele>2285.01</ele>
        <time>2022-06-30T10:03:32.000Z</time>
      </trkpt>
      <trkpt lat="44.98031" lon="5.85509">
        <ele>2283.48</ele>
        <time>2022-06-30T10:03:42.000Z</time>
      </trkpt>
      <trkpt lat="44.9803" lon="5.8551">
        <ele>2282.72</ele>
        <time>2022-06-30T10:03:52.000Z</time>
      </trkpt>
      <trkpt lat="44.98029" lon="5.85508">
        <ele>2283.11</ele>
        <time>2022-06-30T10:04:32.000Z</time>
      </trkpt>
      <trkpt lat="44.98024" lon="5.85499">
        <ele>2283.63</ele>
        <time>2022-06-30T10:04:42.000Z</time>
      </trkpt>
      <trkpt lat="44.98017" lon="5.85499">
        <ele>2281.7</ele>
        <time>2022-06-30T10:04:52.000Z</time>
      </trkpt>
      <trkpt lat="44.98014" lon="5.85502">
        <ele>2283.41</ele>
        <time>2022-06-30T10:05:02.000Z</time>
      </trkpt>
      <trkpt lat="44.98013" lon="5.85502">
        <ele>2283.97</ele>
        <time>2022-06-30T10:05:12.000Z</time>
      </trkpt>
      <trkpt lat="44.98012" lon="5.85503">
        <ele>2284.73</ele>
        <time>2022-06-30T10:05:26.000Z</time>
      </trkpt>
      <trkpt lat="44.98004" lon="5.855">
        <ele>2285.41</ele>
        <time>2022-06-30T10:05:36.000Z</time>
      </trkpt>
      <trkpt lat="44.97999" lon="5.85497">
        <ele>2287.29</ele>
        <time>2022-06-30T10:05:46.000Z</time>
      </trkpt>
      <trkpt lat="44.97997" lon="5.85496">
        <ele>2287.75</ele>
        <time>2022-06-30T10:05:56.000Z</time>
      </trkpt>
      <trkpt lat="44.97989" lon="5.85493">
        <ele>2294.6</ele>
        <time>2022-06-30T10:06:06.000Z</time>
      </trkpt>
      <trkpt lat="44.97982" lon="5.85486">
        <ele>2300.55</ele>
        <time>2022-06-30T10:06:16.000Z</time>
      </trkpt>
      <trkpt lat="44.97976" lon="5.85483">
        <ele>2299.95</ele>
        <time>2022-06-30T10:06:26.000Z</time>
      </trkpt>
      <trkpt lat="44.97974" lon="5.85484">
        <ele>2298.62</ele>
        <time>2022-06-30T10:06:36.000Z</time>
      </trkpt>
      <trkpt lat="44.97967" lon="5.85486">
        <ele>2301.68</ele>
        <time>2022-06-30T10:06:46.000Z</time>
      </trkpt>
      <trkpt lat="44.97962" lon="5.85491">
        <ele>2301.15</ele>
        <time>2022-06-30T10:06:56.000Z</time>
      </trkpt>
      <trkpt lat="44.97961" lon="5.8549">
        <ele>2300.48</ele>
        <time>2022-06-30T10:07:06.000Z</time>
      </trkpt>
      <trkpt lat="44.97956" lon="5.85488">
        <ele>2297.72</ele>
        <time>2022-06-30T10:07:16.000Z</time>
      </trkpt>
      <trkpt lat="44.97953" lon="5.85488">
        <ele>2306.55</ele>
        <time>2022-06-30T10:07:26.000Z</time>
      </trkpt>
      <trkpt lat="44.97955" lon="5.85486">
        <ele>2307.31</ele>
        <time>2022-06-30T10:07:36.000Z</time>
      </trkpt>
      <trkpt lat="44.97954" lon="5.85485">
        <ele>2307.11</ele>
        <time>2022-06-30T10:07:47.000Z</time>
      </trkpt>
      <trkpt lat="44.97949" lon="5.85489">
        <ele>2314.94</ele>
        <time>2022-06-30T10:07:57.000Z</time>
      </trkpt>
      <trkpt lat="44.97948" lon="5.85494">
        <ele>2317.32</ele>
        <time>2022-06-30T10:08:07.000Z</time>
      </trkpt>
      <trkpt lat="44.97945" lon="5.85489">
        <ele>2316.15</ele>
        <time>2022-06-30T10:08:17.000Z</time>
      </trkpt>
      <trkpt lat="44.97938" lon="5.85495">
        <ele>2318.97</ele>
        <time>2022-06-30T10:08:27.000Z</time>
      </trkpt>
      <trkpt lat="44.97935" lon="5.85494">
        <ele>2313.86</ele>
        <time>2022-06-30T10:08:37.000Z</time>
      </trkpt>
      <trkpt lat="44.97928" lon="5.85491">
        <ele>2309.53</ele>
        <time>2022-06-30T10:08:47.000Z</time>
      </trkpt>
      <trkpt lat="44.97919" lon="5.855">
        <ele>2310.51</ele>
        <time>2022-06-30T10:08:57.000Z</time>
      </trkpt>
      <trkpt lat="44.97916" lon="5.85498">
        <ele>2308.8</ele>
        <time>2022-06-30T10:09:07.000Z</time>
      </trkpt>
      <trkpt lat="44.97909" lon="5.85495">
        <ele>2312.39</ele>
        <time>2022-06-30T10:09:17.000Z</time>
      </trkpt>
      <trkpt lat="44.97901" lon="5.85489">
        <ele>2311.94</ele>
        <time>2022-06-30T10:09:27.000Z</time>
      </trkpt>
      <trkpt lat="44.97892" lon="5.85488">
        <ele>2311.79</ele>
        <time>2022-06-30T10:09:37.000Z</time>
      </trkpt>
      <trkpt lat="44.97887" lon="5.85487">
        <ele>2313.53</ele>
        <time>2022-06-30T10:09:47.000Z</time>
      </trkpt>
      <trkpt lat="44.97881" lon="5.85488">
        <ele>2314.52</ele>
        <time>2022-06-30T10:09:57.000Z</time>
      </trkpt>
      <trkpt lat="44.97871" lon="5.85492">
        <ele>2315.74</ele>
        <time>2022-06-30T10:10:07.000Z</time>
      </trkpt>
      <trkpt lat="44.97861" lon="5.85492">
        <ele>2315.84</ele>
        <time>2022-06-30T10:10:17.000Z</time>
      </trkpt>
      <trkpt lat="44.97853" lon="5.8549">
        <ele>2317.35</ele>
        <time>2022-06-30T10:10:27.000Z</time>
      </trkpt>
      <trkpt lat="44.97845" lon="5.85496">
        <ele>2316.83</ele>
        <time>2022-06-30T10:10:37.000Z</time>
      </trkpt>
      <trkpt lat="44.9784" lon="5.85497">
        <ele>2318.26</ele>
        <time>2022-06-30T10:10:47.000Z</time>
      </trkpt>
      <trkpt lat="44.97828" lon="5.855">
        <ele>2319.77</ele>
        <time>2022-06-30T10:10:57.000Z</time>
      </trkpt>
      <trkpt lat="44.97823" lon="5.85502">
        <ele>2321.86</ele>
        <time>2022-06-30T10:11:07.000Z</time>
      </trkpt>
      <trkpt lat="44.97822" lon="5.85501">
        <ele>2322.63</ele>
        <time>2022-06-30T10:11:17.000Z</time>
      </trkpt>
      <trkpt lat="44.9782" lon="5.855">
        <ele>2323.66</ele>
        <time>2022-06-30T10:11:27.000Z</time>
      </trkpt>
      <trkpt lat="44.97814" lon="5.85503">
        <ele>2326.15</ele>
        <time>2022-06-30T10:11:37.000Z</time>
      </trkpt>
      <trkpt lat="44.97809" lon="5.85504">
        <ele>2327.81</ele>
        <time>2022-06-30T10:11:47.000Z</time>
      </trkpt>
      <trkpt lat="44.97807" lon="5.85504">
        <ele>2330.56</ele>
        <time>2022-06-30T10:11:57.000Z</time>
      </trkpt>
      <trkpt lat="44.97803" lon="5.85512">
        <ele>2333.71</ele>
        <time>2022-06-30T10:12:07.000Z</time>
      </trkpt>
      <trkpt lat="44.97796" lon="5.8551">
        <ele>2333.88</ele>
        <time>2022-06-30T10:12:17.000Z</time>
      </trkpt>
      <trkpt lat="44.97792" lon="5.85515">
        <ele>2334.44</ele>
        <time>2022-06-30T10:12:27.000Z</time>
      </trkpt>
      <trkpt lat="44.97788" lon="5.85514">
        <ele>2331.05</ele>
        <time>2022-06-30T10:12:37.000Z</time>
      </trkpt>
      <trkpt lat="44.97778" lon="5.85518">
        <ele>2332.9</ele>
        <time>2022-06-30T10:12:47.000Z</time>
      </trkpt>
      <trkpt lat="44.97778" lon="5.85516">
        <ele>2333.03</ele>
        <time>2022-06-30T10:12:57.000Z</time>
      </trkpt>
      <trkpt lat="44.97774" lon="5.85515">
        <ele>2334.18</ele>
        <time>2022-06-30T10:13:07.000Z</time>
      </trkpt>
      <trkpt lat="44.97766" lon="5.85518">
        <ele>2331.23</ele>
        <time>2022-06-30T10:13:17.000Z</time>
      </trkpt>
      <trkpt lat="44.97759" lon="5.85523">
        <ele>2332.71</ele>
        <time>2022-06-30T10:13:27.000Z</time>
      </trkpt>
      <trkpt lat="44.97755" lon="5.85517">
        <ele>2333.73</ele>
        <time>2022-06-30T10:13:37.000Z</time>
      </trkpt>
      <trkpt lat="44.97749" lon="5.85523">
        <ele>2337.82</ele>
        <time>2022-06-30T10:13:47.000Z</time>
      </trkpt>
      <trkpt lat="44.97745" lon="5.85524">
        <ele>2335.99</ele>
        <time>2022-06-30T10:13:57.000Z</time>
      </trkpt>
      <trkpt lat="44.97738" lon="5.85532">
        <ele>2337.65</ele>
        <time>2022-06-30T10:14:07.000Z</time>
      </trkpt>
      <trkpt lat="44.97734" lon="5.85523">
        <ele>2339.43</ele>
        <time>2022-06-30T10:14:17.000Z</time>
      </trkpt>
      <trkpt lat="44.97731" lon="5.85527">
        <ele>2340.72</ele>
        <time>2022-06-30T10:14:27.000Z</time>
      </trkpt>
      <trkpt lat="44.97728" lon="5.85524">
        <ele>2340.31</ele>
        <time>2022-06-30T10:14:37.000Z</time>
      </trkpt>
      <trkpt lat="44.97719" lon="5.85527">
        <ele>2337.4</ele>
        <time>2022-06-30T10:14:47.000Z</time>
      </trkpt>
      <trkpt lat="44.97713" lon="5.85533">
        <ele>2337.89</ele>
        <time>2022-06-30T10:14:57.000Z</time>
      </trkpt>
      <trkpt lat="44.97708" lon="5.85538">
        <ele>2341.98</ele>
        <time>2022-06-30T10:15:07.000Z</time>
      </trkpt>
      <trkpt lat="44.97703" lon="5.85536">
        <ele>2345.43</ele>
        <time>2022-06-30T10:15:17.000Z</time>
      </trkpt>
      <trkpt lat="44.97701" lon="5.85531">
        <ele>2346.58</ele>
        <time>2022-06-30T10:15:27.000Z</time>
      </trkpt>
      <trkpt lat="44.97694" lon="5.85531">
        <ele>2351.86</ele>
        <time>2022-06-30T10:15:37.000Z</time>
      </trkpt>
      <trkpt lat="44.97689" lon="5.85533">
        <ele>2356.56</ele>
        <time>2022-06-30T10:15:47.000Z</time>
      </trkpt>
      <trkpt lat="44.97684" lon="5.85532">
        <ele>2359.03</ele>
        <time>2022-06-30T10:15:57.000Z</time>
      </trkpt>
      <trkpt lat="44.97681" lon="5.85536">
        <ele>2362.86</ele>
        <time>2022-06-30T10:16:07.000Z</time>
      </trkpt>
      <trkpt lat="44.9768" lon="5.8554">
        <ele>2364.61</ele>
        <time>2022-06-30T10:16:17.000Z</time>
      </trkpt>
      <trkpt lat="44.97679" lon="5.85547">
        <ele>2362.85</ele>
        <time>2022-06-30T10:16:27.000Z</time>
      </trkpt>
      <trkpt lat="44.97679" lon="5.85549">
        <ele>2364.52</ele>
        <time>2022-06-30T10:16:37.000Z</time>
      </trkpt>
      <trkpt lat="44.97681" lon="5.85548">
        <ele>2365.87</ele>
        <time>2022-06-30T10:16:47.000Z</time>
      </trkpt>
      <trkpt lat="44.97681" lon="5.85549">
        <ele>2370.53</ele>
        <time>2022-06-30T10:17:53.000Z</time>
      </trkpt>
      <trkpt lat="44.97684" lon="5.8555">
        <ele>2374.17</ele>
        <time>2022-06-30T10:18:03.000Z</time>
      </trkpt>
      <trkpt lat="44.97685" lon="5.85551">
        <ele>2375.61</ele>
        <time>2022-06-30T10:18:15.000Z</time>
      </trkpt>
      <trkpt lat="44.97684" lon="5.85552">
        <ele>2377.47</ele>
        <time>2022-06-30T10:18:28.000Z</time>
      </trkpt>
      <trkpt lat="44.97684" lon="5.85551">
        <ele>2377.58</ele>
        <time>2022-06-30T10:18:41.000Z</time>
      </trkpt>
      <trkpt lat="44.97683" lon="5.85553">
        <ele>2378.48</ele>
        <time>2022-06-30T10:18:51.000Z</time>
      </trkpt>
      <trkpt lat="44.97682" lon="5.85554">
        <ele>2378.4</ele>
        <time>2022-06-30T10:19:09.000Z</time>
      </trkpt>
      <trkpt lat="44.97681" lon="5.85554">
        <ele>2377.99</ele>
        <time>2022-06-30T10:19:27.000Z</time>
      </trkpt>
      <trkpt lat="44.97681" lon="5.85552">
        <ele>2375.85</ele>
        <time>2022-06-30T10:19:37.000Z</time>
      </trkpt>
      <trkpt lat="44.97682" lon="5.85553">
        <ele>2378.03</ele>
        <time>2022-06-30T10:20:43.000Z</time>
      </trkpt>
      <trkpt lat="44.97681" lon="5.85552">
        <ele>2384.76</ele>
        <time>2022-06-30T10:23:17.000Z</time>
      </trkpt>
      <trkpt lat="44.9768" lon="5.85552">
        <ele>2384.58</ele>
        <time>2022-06-30T10:23:27.000Z</time>
      </trkpt>
      <trkpt lat="44.97681" lon="5.85551">
        <ele>2385.3</ele>
        <time>2022-06-30T10:23:56.000Z</time>
      </trkpt>
      <trkpt lat="44.97681" lon="5.8555">
        <ele>2387.53</ele>
        <time>2022-06-30T10:24:34.000Z</time>
      </trkpt>
      <trkpt lat="44.97685" lon="5.85545">
        <ele>2387.79</ele>
        <time>2022-06-30T10:24:44.000Z</time>
      </trkpt>
      <trkpt lat="44.97691" lon="5.85545">
        <ele>2388.06</ele>
        <time>2022-06-30T10:24:54.000Z</time>
      </trkpt>
      <trkpt lat="44.97702" lon="5.85545">
        <ele>2389.02</ele>
        <time>2022-06-30T10:25:04.000Z</time>
      </trkpt>
      <trkpt lat="44.97705" lon="5.85542">
        <ele>2386.35</ele>
        <time>2022-06-30T10:25:14.000Z</time>
      </trkpt>
      <trkpt lat="44.97708" lon="5.85542">
        <ele>2386.88</ele>
        <time>2022-06-30T10:25:24.000Z</time>
      </trkpt>
      <trkpt lat="44.97713" lon="5.85541">
        <ele>2386.26</ele>
        <time>2022-06-30T10:25:34.000Z</time>
      </trkpt>
      <trkpt lat="44.97718" lon="5.85534">
        <ele>2385.17</ele>
        <time>2022-06-30T10:25:44.000Z</time>
      </trkpt>
      <trkpt lat="44.97723" lon="5.85532">
        <ele>2385.87</ele>
        <time>2022-06-30T10:25:54.000Z</time>
      </trkpt>
      <trkpt lat="44.97721" lon="5.85522">
        <ele>2383.36</ele>
        <time>2022-06-30T10:26:04.000Z</time>
      </trkpt>
      <trkpt lat="44.97722" lon="5.85523">
        <ele>2382.87</ele>
        <time>2022-06-30T10:26:36.000Z</time>
      </trkpt>
      <trkpt lat="44.97735" lon="5.85527">
        <ele>2380.1</ele>
        <time>2022-06-30T10:26:46.000Z</time>
      </trkpt>
      <trkpt lat="44.97747" lon="5.85527">
        <ele>2377.1</ele>
        <time>2022-06-30T10:26:56.000Z</time>
      </trkpt>
      <trkpt lat="44.97755" lon="5.85524">
        <ele>2377.31</ele>
        <time>2022-06-30T10:27:06.000Z</time>
      </trkpt>
      <trkpt lat="44.97766" lon="5.8552">
        <ele>2374.31</ele>
        <time>2022-06-30T10:27:16.000Z</time>
      </trkpt>
      <trkpt lat="44.9777" lon="5.85516">
        <ele>2371.76</ele>
        <time>2022-06-30T10:27:26.000Z</time>
      </trkpt>
      <trkpt lat="44.97771" lon="5.85516">
        <ele>2370.59</ele>
        <time>2022-06-30T10:27:36.000Z</time>
      </trkpt>
      <trkpt lat="44.97775" lon="5.85511">
        <ele>2371.84</ele>
        <time>2022-06-30T10:27:46.000Z</time>
      </trkpt>
      <trkpt lat="44.97772" lon="5.85497">
        <ele>2370.14</ele>
        <time>2022-06-30T10:27:56.000Z</time>
      </trkpt>
      <trkpt lat="44.97772" lon="5.85492">
        <ele>2367.45</ele>
        <time>2022-06-30T10:28:06.000Z</time>
      </trkpt>
      <trkpt lat="44.97771" lon="5.85489">
        <ele>2368.27</ele>
        <time>2022-06-30T10:28:16.000Z</time>
      </trkpt>
      <trkpt lat="44.97771" lon="5.85488">
        <ele>2367.69</ele>
        <time>2022-06-30T10:28:27.000Z</time>
      </trkpt>
      <trkpt lat="44.97767" lon="5.85466">
        <ele>2365.73</ele>
        <time>2022-06-30T10:28:37.000Z</time>
      </trkpt>
      <trkpt lat="44.97764" lon="5.85461">
        <ele>2359.69</ele>
        <time>2022-06-30T10:28:47.000Z</time>
      </trkpt>
      <trkpt lat="44.97762" lon="5.85446">
        <ele>2359.34</ele>
        <time>2022-06-30T10:28:57.000Z</time>
      </trkpt>
      <trkpt lat="44.97759" lon="5.85433">
        <ele>2360.36</ele>
        <time>2022-06-30T10:29:07.000Z</time>
      </trkpt>
      <trkpt lat="44.97756" lon="5.85425">
        <ele>2355.77</ele>
        <time>2022-06-30T10:29:17.000Z</time>
      </trkpt>
      <trkpt lat="44.97748" lon="5.85416">
        <ele>2353.31</ele>
        <time>2022-06-30T10:29:27.000Z</time>
      </trkpt>
      <trkpt lat="44.97744" lon="5.85405">
        <ele>2351.08</ele>
        <time>2022-06-30T10:29:37.000Z</time>
      </trkpt>
      <trkpt lat="44.97738" lon="5.85405">
        <ele>2343.13</ele>
        <time>2022-06-30T10:29:47.000Z</time>
      </trkpt>
      <trkpt lat="44.97732" lon="5.85396">
        <ele>2342</ele>
        <time>2022-06-30T10:29:57.000Z</time>
      </trkpt>
      <trkpt lat="44.97725" lon="5.85386">
        <ele>2338.46</ele>
        <time>2022-06-30T10:30:07.000Z</time>
      </trkpt>
      <trkpt lat="44.97718" lon="5.8538">
        <ele>2336.45</ele>
        <time>2022-06-30T10:30:17.000Z</time>
      </trkpt>
      <trkpt lat="44.97713" lon="5.85371">
        <ele>2337.53</ele>
        <time>2022-06-30T10:30:27.000Z</time>
      </trkpt>
      <trkpt lat="44.97709" lon="5.85372">
        <ele>2335.32</ele>
        <time>2022-06-30T10:30:37.000Z</time>
      </trkpt>
      <trkpt lat="44.97709" lon="5.85367">
        <ele>2330.13</ele>
        <time>2022-06-30T10:30:47.000Z</time>
      </trkpt>
      <trkpt lat="44.97701" lon="5.8536">
        <ele>2331.18</ele>
        <time>2022-06-30T10:30:57.000Z</time>
      </trkpt>
      <trkpt lat="44.97698" lon="5.8536">
        <ele>2328.05</ele>
        <time>2022-06-30T10:31:07.000Z</time>
      </trkpt>
      <trkpt lat="44.977" lon="5.85361">
        <ele>2326.28</ele>
        <time>2022-06-30T10:31:17.000Z</time>
      </trkpt>
      <trkpt lat="44.977" lon="5.85357">
        <ele>2325.97</ele>
        <time>2022-06-30T10:31:32.000Z</time>
      </trkpt>
      <trkpt lat="44.97698" lon="5.8535">
        <ele>2326.63</ele>
        <time>2022-06-30T10:31:42.000Z</time>
      </trkpt>
      <trkpt lat="44.97697" lon="5.85349">
        <ele>2326.09</ele>
        <time>2022-06-30T10:31:56.000Z</time>
      </trkpt>
      <trkpt lat="44.97687" lon="5.85343">
        <ele>2323.23</ele>
        <time>2022-06-30T10:32:06.000Z</time>
      </trkpt>
      <trkpt lat="44.97686" lon="5.85341">
        <ele>2321.87</ele>
        <time>2022-06-30T10:32:16.000Z</time>
      </trkpt>
      <trkpt lat="44.97685" lon="5.8534">
        <ele>2321.05</ele>
        <time>2022-06-30T10:32:30.000Z</time>
      </trkpt>
      <trkpt lat="44.97687" lon="5.85341">
        <ele>2321.54</ele>
        <time>2022-06-30T10:32:40.000Z</time>
      </trkpt>
      <trkpt lat="44.97683" lon="5.85343">
        <ele>2322.15</ele>
        <time>2022-06-30T10:32:50.000Z</time>
      </trkpt>
      <trkpt lat="44.97682" lon="5.85342">
        <ele>2323.03</ele>
        <time>2022-06-30T10:33:00.000Z</time>
      </trkpt>
      <trkpt lat="44.97683" lon="5.85344">
        <ele>2322.97</ele>
        <time>2022-06-30T10:40:55.000Z</time>
      </trkpt>
      <trkpt lat="44.97686" lon="5.85343">
        <ele>2320.45</ele>
        <time>2022-06-30T10:41:05.000Z</time>
      </trkpt>
      <trkpt lat="44.97684" lon="5.85344">
        <ele>2318.78</ele>
        <time>2022-06-30T10:42:13.000Z</time>
      </trkpt>
      <trkpt lat="44.97683" lon="5.85345">
        <ele>2315.05</ele>
        <time>2022-06-30T10:42:23.000Z</time>
      </trkpt>
      <trkpt lat="44.97684" lon="5.85345">
        <ele>2315.19</ele>
        <time>2022-06-30T10:46:02.000Z</time>
      </trkpt>
      <trkpt lat="44.97685" lon="5.85344">
        <ele>2317.23</ele>
        <time>2022-06-30T10:46:12.000Z</time>
      </trkpt>
      <trkpt lat="44.97686" lon="5.85342">
        <ele>2317.95</ele>
        <time>2022-06-30T10:47:30.000Z</time>
      </trkpt>
      <trkpt lat="44.97687" lon="5.8534">
        <ele>2313.64</ele>
        <time>2022-06-30T10:54:41.000Z</time>
      </trkpt>
      <trkpt lat="44.97688" lon="5.85339">
        <ele>2310.61</ele>
        <time>2022-06-30T10:54:51.000Z</time>
      </trkpt>
      <trkpt lat="44.97688" lon="5.85338">
        <ele>2309.26</ele>
        <time>2022-06-30T10:55:18.000Z</time>
      </trkpt>
      <trkpt lat="44.97689" lon="5.85338">
        <ele>2309.71</ele>
        <time>2022-06-30T10:57:28.000Z</time>
      </trkpt>
      <trkpt lat="44.97691" lon="5.8534">
        <ele>2309.48</ele>
        <time>2022-06-30T10:57:38.000Z</time>
      </trkpt>
      <trkpt lat="44.9769" lon="5.85339">
        <ele>2312.54</ele>
        <time>2022-06-30T10:57:52.000Z</time>
      </trkpt>
      <trkpt lat="44.97689" lon="5.85341">
        <ele>2314.06</ele>
        <time>2022-06-30T10:58:10.000Z</time>
      </trkpt>
      <trkpt lat="44.97688" lon="5.85346">
        <ele>2314.69</ele>
        <time>2022-06-30T10:58:20.000Z</time>
      </trkpt>
      <trkpt lat="44.97688" lon="5.85344">
        <ele>2314.58</ele>
        <time>2022-06-30T10:58:33.000Z</time>
      </trkpt>
      <trkpt lat="44.97689" lon="5.8534">
        <ele>2315.06</ele>
        <time>2022-06-30T10:58:43.000Z</time>
      </trkpt>
      <trkpt lat="44.97688" lon="5.85341">
        <ele>2314.77</ele>
        <time>2022-06-30T10:59:09.000Z</time>
      </trkpt>
      <trkpt lat="44.97686" lon="5.85342">
        <ele>2317.51</ele>
        <time>2022-06-30T10:59:19.000Z</time>
      </trkpt>
      <trkpt lat="44.97685" lon="5.85342">
        <ele>2317.6</ele>
        <time>2022-06-30T11:00:03.000Z</time>
      </trkpt>
      <trkpt lat="44.97686" lon="5.8534">
        <ele>2315.35</ele>
        <time>2022-06-30T11:00:23.000Z</time>
      </trkpt>
      <trkpt lat="44.97685" lon="5.85339">
        <ele>2315.95</ele>
        <time>2022-06-30T11:00:33.000Z</time>
      </trkpt>
      <trkpt lat="44.97684" lon="5.85339">
        <ele>2318.5</ele>
        <time>2022-06-30T11:00:43.000Z</time>
      </trkpt>
      <trkpt lat="44.97683" lon="5.85339">
        <ele>2319.32</ele>
        <time>2022-06-30T11:01:06.000Z</time>
      </trkpt>
      <trkpt lat="44.97682" lon="5.8534">
        <ele>2318.05</ele>
        <time>2022-06-30T11:01:20.000Z</time>
      </trkpt>
      <trkpt lat="44.97682" lon="5.85339">
        <ele>2318.75</ele>
        <time>2022-06-30T11:01:33.000Z</time>
      </trkpt>
      <trkpt lat="44.97681" lon="5.85339">
        <ele>2316.89</ele>
        <time>2022-06-30T11:01:43.000Z</time>
      </trkpt>
      <trkpt lat="44.97682" lon="5.85339">
        <ele>2317.09</ele>
        <time>2022-06-30T11:02:24.000Z</time>
      </trkpt>
      <trkpt lat="44.97686" lon="5.8534">
        <ele>2318.16</ele>
        <time>2022-06-30T11:02:34.000Z</time>
      </trkpt>
      <trkpt lat="44.97686" lon="5.85339">
        <ele>2317.67</ele>
        <time>2022-06-30T11:03:49.000Z</time>
      </trkpt>
      <trkpt lat="44.97689" lon="5.8534">
        <ele>2322.47</ele>
        <time>2022-06-30T11:03:59.000Z</time>
      </trkpt>
      <trkpt lat="44.9769" lon="5.85339">
        <ele>2322.37</ele>
        <time>2022-06-30T11:04:36.000Z</time>
      </trkpt>
      <trkpt lat="44.97689" lon="5.85338">
        <ele>2319.81</ele>
        <time>2022-06-30T11:04:46.000Z</time>
      </trkpt>
      <trkpt lat="44.97688" lon="5.85337">
        <ele>2318.82</ele>
        <time>2022-06-30T11:05:22.000Z</time>
      </trkpt>
      <trkpt lat="44.97687" lon="5.85337">
        <ele>2316.51</ele>
        <time>2022-06-30T11:05:32.000Z</time>
      </trkpt>
      <trkpt lat="44.97687" lon="5.85336">
        <ele>2315.33</ele>
        <time>2022-06-30T11:05:51.000Z</time>
      </trkpt>
      <trkpt lat="44.97685" lon="5.85323">
        <ele>2315.33</ele>
        <time>2022-06-30T11:06:01.000Z</time>
      </trkpt>
      <trkpt lat="44.97685" lon="5.85319">
        <ele>2314.42</ele>
        <time>2022-06-30T11:06:11.000Z</time>
      </trkpt>
      <trkpt lat="44.97681" lon="5.85309">
        <ele>2316.57</ele>
        <time>2022-06-30T11:06:21.000Z</time>
      </trkpt>
      <trkpt lat="44.97679" lon="5.85303">
        <ele>2309.8</ele>
        <time>2022-06-30T11:06:31.000Z</time>
      </trkpt>
      <trkpt lat="44.97677" lon="5.85299">
        <ele>2308.36</ele>
        <time>2022-06-30T11:06:41.000Z</time>
      </trkpt>
      <trkpt lat="44.97674" lon="5.85294">
        <ele>2303.66</ele>
        <time>2022-06-30T11:06:51.000Z</time>
      </trkpt>
      <trkpt lat="44.97675" lon="5.85292">
        <ele>2302.34</ele>
        <time>2022-06-30T11:07:01.000Z</time>
      </trkpt>
      <trkpt lat="44.97673" lon="5.85283">
        <ele>2300.63</ele>
        <time>2022-06-30T11:07:11.000Z</time>
      </trkpt>
      <trkpt lat="44.97669" lon="5.85266">
        <ele>2303.25</ele>
        <time>2022-06-30T11:07:21.000Z</time>
      </trkpt>
      <trkpt lat="44.97666" lon="5.85258">
        <ele>2305.38</ele>
        <time>2022-06-30T11:07:31.000Z</time>
      </trkpt>
      <trkpt lat="44.97664" lon="5.85244">
        <ele>2303.75</ele>
        <time>2022-06-30T11:07:41.000Z</time>
      </trkpt>
      <trkpt lat="44.97658" lon="5.8524">
        <ele>2302.84</ele>
        <time>2022-06-30T11:07:51.000Z</time>
      </trkpt>
      <trkpt lat="44.97653" lon="5.85231">
        <ele>2295.63</ele>
        <time>2022-06-30T11:08:01.000Z</time>
      </trkpt>
      <trkpt lat="44.97649" lon="5.85225">
        <ele>2294.62</ele>
        <time>2022-06-30T11:08:11.000Z</time>
      </trkpt>
      <trkpt lat="44.97643" lon="5.8522">
        <ele>2298.26</ele>
        <time>2022-06-30T11:08:21.000Z</time>
      </trkpt>
      <trkpt lat="44.97643" lon="5.85219">
        <ele>2299.06</ele>
        <time>2022-06-30T11:08:36.000Z</time>
      </trkpt>
      <trkpt lat="44.97641" lon="5.85211">
        <ele>2297.36</ele>
        <time>2022-06-30T11:08:46.000Z</time>
      </trkpt>
      <trkpt lat="44.97636" lon="5.852">
        <ele>2299.67</ele>
        <time>2022-06-30T11:08:56.000Z</time>
      </trkpt>
      <trkpt lat="44.9763" lon="5.85192">
        <ele>2294.76</ele>
        <time>2022-06-30T11:09:06.000Z</time>
      </trkpt>
      <trkpt lat="44.9763" lon="5.8519">
        <ele>2295.16</ele>
        <time>2022-06-30T11:09:16.000Z</time>
      </trkpt>
      <trkpt lat="44.97625" lon="5.85187">
        <ele>2293.1</ele>
        <time>2022-06-30T11:09:26.000Z</time>
      </trkpt>
      <trkpt lat="44.97624" lon="5.85185">
        <ele>2291.46</ele>
        <time>2022-06-30T11:09:36.000Z</time>
      </trkpt>
      <trkpt lat="44.97623" lon="5.85184">
        <ele>2289.57</ele>
        <time>2022-06-30T11:09:52.000Z</time>
      </trkpt>
      <trkpt lat="44.97624" lon="5.85183">
        <ele>2293.65</ele>
        <time>2022-06-30T11:10:02.000Z</time>
      </trkpt>
      <trkpt lat="44.97624" lon="5.85182">
        <ele>2293.92</ele>
        <time>2022-06-30T11:10:12.000Z</time>
      </trkpt>
      <trkpt lat="44.97621" lon="5.85181">
        <ele>2291.51</ele>
        <time>2022-06-30T11:10:22.000Z</time>
      </trkpt>
      <trkpt lat="44.9762" lon="5.8518">
        <ele>2287.65</ele>
        <time>2022-06-30T11:10:33.000Z</time>
      </trkpt>
      <trkpt lat="44.97619" lon="5.8517">
        <ele>2288.54</ele>
        <time>2022-06-30T11:10:43.000Z</time>
      </trkpt>
      <trkpt lat="44.97618" lon="5.85169">
        <ele>2286.76</ele>
        <time>2022-06-30T11:11:03.000Z</time>
      </trkpt>
      <trkpt lat="44.97616" lon="5.85168">
        <ele>2288.49</ele>
        <time>2022-06-30T11:11:13.000Z</time>
      </trkpt>
      <trkpt lat="44.97616" lon="5.85167">
        <ele>2288.47</ele>
        <time>2022-06-30T11:11:49.000Z</time>
      </trkpt>
      <trkpt lat="44.97615" lon="5.85167">
        <ele>2288.3</ele>
        <time>2022-06-30T11:11:59.000Z</time>
      </trkpt>
      <trkpt lat="44.97611" lon="5.85159">
        <ele>2290</ele>
        <time>2022-06-30T11:12:09.000Z</time>
      </trkpt>
      <trkpt lat="44.97611" lon="5.85152">
        <ele>2291.96</ele>
        <time>2022-06-30T11:12:19.000Z</time>
      </trkpt>
      <trkpt lat="44.97614" lon="5.85149">
        <ele>2290.47</ele>
        <time>2022-06-30T11:12:29.000Z</time>
      </trkpt>
      <trkpt lat="44.97613" lon="5.85151">
        <ele>2292.36</ele>
        <time>2022-06-30T11:12:47.000Z</time>
      </trkpt>
      <trkpt lat="44.97613" lon="5.85149">
        <ele>2291.85</ele>
        <time>2022-06-30T11:12:57.000Z</time>
      </trkpt>
      <trkpt lat="44.97613" lon="5.85148">
        <ele>2291.07</ele>
        <time>2022-06-30T11:13:36.000Z</time>
      </trkpt>
      <trkpt lat="44.97609" lon="5.85142">
        <ele>2287.31</ele>
        <time>2022-06-30T11:13:46.000Z</time>
      </trkpt>
      <trkpt lat="44.97606" lon="5.85133">
        <ele>2283.71</ele>
        <time>2022-06-30T11:13:56.000Z</time>
      </trkpt>
      <trkpt lat="44.976" lon="5.85126">
        <ele>2283.4</ele>
        <time>2022-06-30T11:14:06.000Z</time>
      </trkpt>
      <trkpt lat="44.97598" lon="5.85124">
        <ele>2277.73</ele>
        <time>2022-06-30T11:14:16.000Z</time>
      </trkpt>
      <trkpt lat="44.97591" lon="5.85118">
        <ele>2274.42</ele>
        <time>2022-06-30T11:14:26.000Z</time>
      </trkpt>
      <trkpt lat="44.97581" lon="5.85105">
        <ele>2276.68</ele>
        <time>2022-06-30T11:14:36.000Z</time>
      </trkpt>
      <trkpt lat="44.97573" lon="5.85099">
        <ele>2279.09</ele>
        <time>2022-06-30T11:14:46.000Z</time>
      </trkpt>
      <trkpt lat="44.97568" lon="5.85094">
        <ele>2283.39</ele>
        <time>2022-06-30T11:14:56.000Z</time>
      </trkpt>
      <trkpt lat="44.9756" lon="5.8509">
        <ele>2279.9</ele>
        <time>2022-06-30T11:15:06.000Z</time>
      </trkpt>
      <trkpt lat="44.97551" lon="5.85084">
        <ele>2277.35</ele>
        <time>2022-06-30T11:15:16.000Z</time>
      </trkpt>
      <trkpt lat="44.97546" lon="5.85078">
        <ele>2276.51</ele>
        <time>2022-06-30T11:15:26.000Z</time>
      </trkpt>
      <trkpt lat="44.97537" lon="5.85071">
        <ele>2278.13</ele>
        <time>2022-06-30T11:15:36.000Z</time>
      </trkpt>
      <trkpt lat="44.97532" lon="5.85061">
        <ele>2278.25</ele>
        <time>2022-06-30T11:15:46.000Z</time>
      </trkpt>
      <trkpt lat="44.97524" lon="5.85056">
        <ele>2274.49</ele>
        <time>2022-06-30T11:15:56.000Z</time>
      </trkpt>
      <trkpt lat="44.97516" lon="5.85053">
        <ele>2271.88</ele>
        <time>2022-06-30T11:16:06.000Z</time>
      </trkpt>
      <trkpt lat="44.97512" lon="5.85045">
        <ele>2267.92</ele>
        <time>2022-06-30T11:16:16.000Z</time>
      </trkpt>
      <trkpt lat="44.97501" lon="5.85039">
        <ele>2269.14</ele>
        <time>2022-06-30T11:16:26.000Z</time>
      </trkpt>
      <trkpt lat="44.97492" lon="5.85032">
        <ele>2271.03</ele>
        <time>2022-06-30T11:16:36.000Z</time>
      </trkpt>
      <trkpt lat="44.97486" lon="5.85026">
        <ele>2269.29</ele>
        <time>2022-06-30T11:16:46.000Z</time>
      </trkpt>
      <trkpt lat="44.97478" lon="5.85022">
        <ele>2269.88</ele>
        <time>2022-06-30T11:16:56.000Z</time>
      </trkpt>
      <trkpt lat="44.97469" lon="5.85014">
        <ele>2271.24</ele>
        <time>2022-06-30T11:17:06.000Z</time>
      </trkpt>
      <trkpt lat="44.97464" lon="5.85013">
        <ele>2272.13</ele>
        <time>2022-06-30T11:17:16.000Z</time>
      </trkpt>
      <trkpt lat="44.9746" lon="5.8501">
        <ele>2274.05</ele>
        <time>2022-06-30T11:17:26.000Z</time>
      </trkpt>
      <trkpt lat="44.97452" lon="5.85004">
        <ele>2271.54</ele>
        <time>2022-06-30T11:17:36.000Z</time>
      </trkpt>
      <trkpt lat="44.97448" lon="5.85002">
        <ele>2271.85</ele>
        <time>2022-06-30T11:17:46.000Z</time>
      </trkpt>
      <trkpt lat="44.97439" lon="5.84999">
        <ele>2269.22</ele>
        <time>2022-06-30T11:17:56.000Z</time>
      </trkpt>
      <trkpt lat="44.97432" lon="5.84993">
        <ele>2267.35</ele>
        <time>2022-06-30T11:18:06.000Z</time>
      </trkpt>
      <trkpt lat="44.97424" lon="5.84986">
        <ele>2265.15</ele>
        <time>2022-06-30T11:18:16.000Z</time>
      </trkpt>
      <trkpt lat="44.97415" lon="5.84977">
        <ele>2266.64</ele>
        <time>2022-06-30T11:18:26.000Z</time>
      </trkpt>
      <trkpt lat="44.97403" lon="5.84964">
        <ele>2263.94</ele>
        <time>2022-06-30T11:18:36.000Z</time>
      </trkpt>
      <trkpt lat="44.97396" lon="5.84955">
        <ele>2259.47</ele>
        <time>2022-06-30T11:18:46.000Z</time>
      </trkpt>
      <trkpt lat="44.97393" lon="5.84953">
        <ele>2261.38</ele>
        <time>2022-06-30T11:18:56.000Z</time>
      </trkpt>
      <trkpt lat="44.97385" lon="5.84941">
        <ele>2262.9</ele>
        <time>2022-06-30T11:19:06.000Z</time>
      </trkpt>
      <trkpt lat="44.97371" lon="5.84927">
        <ele>2262.19</ele>
        <time>2022-06-30T11:19:16.000Z</time>
      </trkpt>
      <trkpt lat="44.97362" lon="5.84917">
        <ele>2263.57</ele>
        <time>2022-06-30T11:19:26.000Z</time>
      </trkpt>
      <trkpt lat="44.97356" lon="5.84911">
        <ele>2260.64</ele>
        <time>2022-06-30T11:19:36.000Z</time>
      </trkpt>
      <trkpt lat="44.97345" lon="5.84901">
        <ele>2259.79</ele>
        <time>2022-06-30T11:19:46.000Z</time>
      </trkpt>
      <trkpt lat="44.97336" lon="5.84892">
        <ele>2258.25</ele>
        <time>2022-06-30T11:19:56.000Z</time>
      </trkpt>
      <trkpt lat="44.9733" lon="5.8489">
        <ele>2253.94</ele>
        <time>2022-06-30T11:20:06.000Z</time>
      </trkpt>
      <trkpt lat="44.97322" lon="5.8488">
        <ele>2255.76</ele>
        <time>2022-06-30T11:20:16.000Z</time>
      </trkpt>
      <trkpt lat="44.97315" lon="5.84875">
        <ele>2252.51</ele>
        <time>2022-06-30T11:20:26.000Z</time>
      </trkpt>
      <trkpt lat="44.97308" lon="5.84865">
        <ele>2249.4</ele>
        <time>2022-06-30T11:20:36.000Z</time>
      </trkpt>
      <trkpt lat="44.97296" lon="5.84864">
        <ele>2245.57</ele>
        <time>2022-06-30T11:20:46.000Z</time>
      </trkpt>
      <trkpt lat="44.97286" lon="5.84856">
        <ele>2246.75</ele>
        <time>2022-06-30T11:20:56.000Z</time>
      </trkpt>
      <trkpt lat="44.9728" lon="5.84842">
        <ele>2248.75</ele>
        <time>2022-06-30T11:21:06.000Z</time>
      </trkpt>
      <trkpt lat="44.97277" lon="5.84829">
        <ele>2247.43</ele>
        <time>2022-06-30T11:21:16.000Z</time>
      </trkpt>
      <trkpt lat="44.97273" lon="5.84827">
        <ele>2242.39</ele>
        <time>2022-06-30T11:21:26.000Z</time>
      </trkpt>
      <trkpt lat="44.97265" lon="5.84814">
        <ele>2242.68</ele>
        <time>2022-06-30T11:21:36.000Z</time>
      </trkpt>
      <trkpt lat="44.97258" lon="5.84802">
        <ele>2241.54</ele>
        <time>2022-06-30T11:21:46.000Z</time>
      </trkpt>
      <trkpt lat="44.97255" lon="5.84794">
        <ele>2238.38</ele>
        <time>2022-06-30T11:21:56.000Z</time>
      </trkpt>
      <trkpt lat="44.97251" lon="5.84785">
        <ele>2237.49</ele>
        <time>2022-06-30T11:22:06.000Z</time>
      </trkpt>
      <trkpt lat="44.97247" lon="5.84774">
        <ele>2234.44</ele>
        <time>2022-06-30T11:22:16.000Z</time>
      </trkpt>
      <trkpt lat="44.97241" lon="5.84762">
        <ele>2233.51</ele>
        <time>2022-06-30T11:22:26.000Z</time>
      </trkpt>
      <trkpt lat="44.97231" lon="5.84748">
        <ele>2232.53</ele>
        <time>2022-06-30T11:22:36.000Z</time>
      </trkpt>
      <trkpt lat="44.97227" lon="5.84736">
        <ele>2229.32</ele>
        <time>2022-06-30T11:22:46.000Z</time>
      </trkpt>
      <trkpt lat="44.97223" lon="5.84721">
        <ele>2230.41</ele>
        <time>2022-06-30T11:22:56.000Z</time>
      </trkpt>
      <trkpt lat="44.97213" lon="5.84715">
        <ele>2230.54</ele>
        <time>2022-06-30T11:23:06.000Z</time>
      </trkpt>
      <trkpt lat="44.97205" lon="5.84713">
        <ele>2233.4</ele>
        <time>2022-06-30T11:23:16.000Z</time>
      </trkpt>
      <trkpt lat="44.97196" lon="5.84711">
        <ele>2229.94</ele>
        <time>2022-06-30T11:23:26.000Z</time>
      </trkpt>
      <trkpt lat="44.97189" lon="5.84711">
        <ele>2225.92</ele>
        <time>2022-06-30T11:23:36.000Z</time>
      </trkpt>
      <trkpt lat="44.97182" lon="5.84708">
        <ele>2225.94</ele>
        <time>2022-06-30T11:23:46.000Z</time>
      </trkpt>
      <trkpt lat="44.97168" lon="5.84702">
        <ele>2228.23</ele>
        <time>2022-06-30T11:23:56.000Z</time>
      </trkpt>
      <trkpt lat="44.97157" lon="5.84701">
        <ele>2227.9</ele>
        <time>2022-06-30T11:24:06.000Z</time>
      </trkpt>
      <trkpt lat="44.97148" lon="5.84694">
        <ele>2227.76</ele>
        <time>2022-06-30T11:24:16.000Z</time>
      </trkpt>
      <trkpt lat="44.97144" lon="5.8469">
        <ele>2227.84</ele>
        <time>2022-06-30T11:24:26.000Z</time>
      </trkpt>
      <trkpt lat="44.97135" lon="5.84686">
        <ele>2225.86</ele>
        <time>2022-06-30T11:24:36.000Z</time>
      </trkpt>
      <trkpt lat="44.97125" lon="5.84684">
        <ele>2225.79</ele>
        <time>2022-06-30T11:24:46.000Z</time>
      </trkpt>
      <trkpt lat="44.97115" lon="5.84676">
        <ele>2225.65</ele>
        <time>2022-06-30T11:24:56.000Z</time>
      </trkpt>
      <trkpt lat="44.97106" lon="5.84672">
        <ele>2224.02</ele>
        <time>2022-06-30T11:25:06.000Z</time>
      </trkpt>
      <trkpt lat="44.97098" lon="5.8467">
        <ele>2221.47</ele>
        <time>2022-06-30T11:25:16.000Z</time>
      </trkpt>
      <trkpt lat="44.97088" lon="5.84666">
        <ele>2219.98</ele>
        <time>2022-06-30T11:25:26.000Z</time>
      </trkpt>
      <trkpt lat="44.97076" lon="5.84666">
        <ele>2221.88</ele>
        <time>2022-06-30T11:25:36.000Z</time>
      </trkpt>
      <trkpt lat="44.97065" lon="5.84663">
        <ele>2217.74</ele>
        <time>2022-06-30T11:25:46.000Z</time>
      </trkpt>
      <trkpt lat="44.97057" lon="5.84661">
        <ele>2214.45</ele>
        <time>2022-06-30T11:25:56.000Z</time>
      </trkpt>
      <trkpt lat="44.97046" lon="5.84656">
        <ele>2213.96</ele>
        <time>2022-06-30T11:26:06.000Z</time>
      </trkpt>
      <trkpt lat="44.97036" lon="5.84652">
        <ele>2215.67</ele>
        <time>2022-06-30T11:26:16.000Z</time>
      </trkpt>
      <trkpt lat="44.97026" lon="5.84642">
        <ele>2211.84</ele>
        <time>2022-06-30T11:26:26.000Z</time>
      </trkpt>
      <trkpt lat="44.97017" lon="5.84638">
        <ele>2210.57</ele>
        <time>2022-06-30T11:26:36.000Z</time>
      </trkpt>
      <trkpt lat="44.97004" lon="5.84635">
        <ele>2209.79</ele>
        <time>2022-06-30T11:26:46.000Z</time>
      </trkpt>
      <trkpt lat="44.96997" lon="5.84633">
        <ele>2210.2</ele>
        <time>2022-06-30T11:26:56.000Z</time>
      </trkpt>
      <trkpt lat="44.96989" lon="5.84628">
        <ele>2206.16</ele>
        <time>2022-06-30T11:27:06.000Z</time>
      </trkpt>
      <trkpt lat="44.96975" lon="5.84624">
        <ele>2206.21</ele>
        <time>2022-06-30T11:27:16.000Z</time>
      </trkpt>
      <trkpt lat="44.96965" lon="5.8462">
        <ele>2205.95</ele>
        <time>2022-06-30T11:27:26.000Z</time>
      </trkpt>
      <trkpt lat="44.96954" lon="5.84616">
        <ele>2206.26</ele>
        <time>2022-06-30T11:27:36.000Z</time>
      </trkpt>
      <trkpt lat="44.96945" lon="5.84612">
        <ele>2205.44</ele>
        <time>2022-06-30T11:27:46.000Z</time>
      </trkpt>
      <trkpt lat="44.96932" lon="5.84615">
        <ele>2206.2</ele>
        <time>2022-06-30T11:27:56.000Z</time>
      </trkpt>
      <trkpt lat="44.96923" lon="5.84612">
        <ele>2207.41</ele>
        <time>2022-06-30T11:28:06.000Z</time>
      </trkpt>
      <trkpt lat="44.96914" lon="5.84606">
        <ele>2207.87</ele>
        <time>2022-06-30T11:28:16.000Z</time>
      </trkpt>
      <trkpt lat="44.96902" lon="5.84601">
        <ele>2209.78</ele>
        <time>2022-06-30T11:28:26.000Z</time>
      </trkpt>
      <trkpt lat="44.96895" lon="5.84597">
        <ele>2209.85</ele>
        <time>2022-06-30T11:28:36.000Z</time>
      </trkpt>
      <trkpt lat="44.96889" lon="5.84592">
        <ele>2206.71</ele>
        <time>2022-06-30T11:28:46.000Z</time>
      </trkpt>
      <trkpt lat="44.96881" lon="5.84583">
        <ele>2204.25</ele>
        <time>2022-06-30T11:28:56.000Z</time>
      </trkpt>
      <trkpt lat="44.96878" lon="5.84574">
        <ele>2202.45</ele>
        <time>2022-06-30T11:29:06.000Z</time>
      </trkpt>
      <trkpt lat="44.96873" lon="5.84564">
        <ele>2201.03</ele>
        <time>2022-06-30T11:29:16.000Z</time>
      </trkpt>
      <trkpt lat="44.96864" lon="5.84553">
        <ele>2198.7</ele>
        <time>2022-06-30T11:29:26.000Z</time>
      </trkpt>
      <trkpt lat="44.96853" lon="5.84544">
        <ele>2198.68</ele>
        <time>2022-06-30T11:29:36.000Z</time>
      </trkpt>
      <trkpt lat="44.96842" lon="5.84537">
        <ele>2195.7</ele>
        <time>2022-06-30T11:29:46.000Z</time>
      </trkpt>
      <trkpt lat="44.96834" lon="5.84528">
        <ele>2193.7</ele>
        <time>2022-06-30T11:29:56.000Z</time>
      </trkpt>
      <trkpt lat="44.96827" lon="5.84523">
        <ele>2190.96</ele>
        <time>2022-06-30T11:30:06.000Z</time>
      </trkpt>
      <trkpt lat="44.96818" lon="5.84526">
        <ele>2188.77</ele>
        <time>2022-06-30T11:30:16.000Z</time>
      </trkpt>
      <trkpt lat="44.96813" lon="5.84526">
        <ele>2184.82</ele>
        <time>2022-06-30T11:30:26.000Z</time>
      </trkpt>
      <trkpt lat="44.96806" lon="5.84522">
        <ele>2181.35</ele>
        <time>2022-06-30T11:30:36.000Z</time>
      </trkpt>
      <trkpt lat="44.96801" lon="5.84519">
        <ele>2178.63</ele>
        <time>2022-06-30T11:30:46.000Z</time>
      </trkpt>
      <trkpt lat="44.96791" lon="5.84517">
        <ele>2176.64</ele>
        <time>2022-06-30T11:30:56.000Z</time>
      </trkpt>
      <trkpt lat="44.96785" lon="5.84513">
        <ele>2176.19</ele>
        <time>2022-06-30T11:31:06.000Z</time>
      </trkpt>
      <trkpt lat="44.96779" lon="5.84502">
        <ele>2177.2</ele>
        <time>2022-06-30T11:31:16.000Z</time>
      </trkpt>
      <trkpt lat="44.96771" lon="5.84496">
        <ele>2179.99</ele>
        <time>2022-06-30T11:31:26.000Z</time>
      </trkpt>
      <trkpt lat="44.96762" lon="5.84488">
        <ele>2176.15</ele>
        <time>2022-06-30T11:31:36.000Z</time>
      </trkpt>
      <trkpt lat="44.96763" lon="5.84486">
        <ele>2172.82</ele>
        <time>2022-06-30T11:31:46.000Z</time>
      </trkpt>
      <trkpt lat="44.9676" lon="5.84484">
        <ele>2175.21</ele>
        <time>2022-06-30T11:31:56.000Z</time>
      </trkpt>
      <trkpt lat="44.96759" lon="5.84483">
        <ele>2175.39</ele>
        <time>2022-06-30T11:32:06.000Z</time>
      </trkpt>
      <trkpt lat="44.96756" lon="5.84467">
        <ele>2172.22</ele>
        <time>2022-06-30T11:32:16.000Z</time>
      </trkpt>
      <trkpt lat="44.96761" lon="5.84451">
        <ele>2168.2</ele>
        <time>2022-06-30T11:32:26.000Z</time>
      </trkpt>
      <trkpt lat="44.96771" lon="5.84444">
        <ele>2167.62</ele>
        <time>2022-06-30T11:32:36.000Z</time>
      </trkpt>
      <trkpt lat="44.96781" lon="5.84438">
        <ele>2165.04</ele>
        <time>2022-06-30T11:32:46.000Z</time>
      </trkpt>
      <trkpt lat="44.96778" lon="5.84435">
        <ele>2167.56</ele>
        <time>2022-06-30T11:32:56.000Z</time>
      </trkpt>
      <trkpt lat="44.9678" lon="5.84435">
        <ele>2168.5</ele>
        <time>2022-06-30T11:33:06.000Z</time>
      </trkpt>
      <trkpt lat="44.96792" lon="5.84431">
        <ele>2164.55</ele>
        <time>2022-06-30T11:33:16.000Z</time>
      </trkpt>
      <trkpt lat="44.96804" lon="5.84428">
        <ele>2167.89</ele>
        <time>2022-06-30T11:33:26.000Z</time>
      </trkpt>
      <trkpt lat="44.96816" lon="5.84425">
        <ele>2170.48</ele>
        <time>2022-06-30T11:33:36.000Z</time>
      </trkpt>
      <trkpt lat="44.9683" lon="5.84416">
        <ele>2170.89</ele>
        <time>2022-06-30T11:33:46.000Z</time>
      </trkpt>
      <trkpt lat="44.9684" lon="5.84414">
        <ele>2168.56</ele>
        <time>2022-06-30T11:33:56.000Z</time>
      </trkpt>
      <trkpt lat="44.96846" lon="5.84423">
        <ele>2170.66</ele>
        <time>2022-06-30T11:34:06.000Z</time>
      </trkpt>
      <trkpt lat="44.96856" lon="5.84425">
        <ele>2167.63</ele>
        <time>2022-06-30T11:34:16.000Z</time>
      </trkpt>
      <trkpt lat="44.96865" lon="5.84426">
        <ele>2168.43</ele>
        <time>2022-06-30T11:34:26.000Z</time>
      </trkpt>
      <trkpt lat="44.96873" lon="5.84423">
        <ele>2168.19</ele>
        <time>2022-06-30T11:34:36.000Z</time>
      </trkpt>
      <trkpt lat="44.9688" lon="5.84421">
        <ele>2166.71</ele>
        <time>2022-06-30T11:34:46.000Z</time>
      </trkpt>
      <trkpt lat="44.96893" lon="5.84408">
        <ele>2169.86</ele>
        <time>2022-06-30T11:34:56.000Z</time>
      </trkpt>
      <trkpt lat="44.96904" lon="5.84406">
        <ele>2163.68</ele>
        <time>2022-06-30T11:35:06.000Z</time>
      </trkpt>
      <trkpt lat="44.96915" lon="5.84404">
        <ele>2164.41</ele>
        <time>2022-06-30T11:35:16.000Z</time>
      </trkpt>
      <trkpt lat="44.96928" lon="5.84395">
        <ele>2167.17</ele>
        <time>2022-06-30T11:35:26.000Z</time>
      </trkpt>
      <trkpt lat="44.96936" lon="5.84383">
        <ele>2170.06</ele>
        <time>2022-06-30T11:35:36.000Z</time>
      </trkpt>
      <trkpt lat="44.96945" lon="5.8438">
        <ele>2171.2</ele>
        <time>2022-06-30T11:35:46.000Z</time>
      </trkpt>
      <trkpt lat="44.96951" lon="5.84376">
        <ele>2169.11</ele>
        <time>2022-06-30T11:35:56.000Z</time>
      </trkpt>
      <trkpt lat="44.96959" lon="5.84361">
        <ele>2168.85</ele>
        <time>2022-06-30T11:36:06.000Z</time>
      </trkpt>
      <trkpt lat="44.96964" lon="5.84355">
        <ele>2166.96</ele>
        <time>2022-06-30T11:36:16.000Z</time>
      </trkpt>
      <trkpt lat="44.96972" lon="5.84343">
        <ele>2165.53</ele>
        <time>2022-06-30T11:36:26.000Z</time>
      </trkpt>
      <trkpt lat="44.96976" lon="5.8434">
        <ele>2161.37</ele>
        <time>2022-06-30T11:36:36.000Z</time>
      </trkpt>
      <trkpt lat="44.96983" lon="5.84337">
        <ele>2158.17</ele>
        <time>2022-06-30T11:36:46.000Z</time>
      </trkpt>
      <trkpt lat="44.96987" lon="5.84325">
        <ele>2160.26</ele>
        <time>2022-06-30T11:36:56.000Z</time>
      </trkpt>
      <trkpt lat="44.96989" lon="5.84319">
        <ele>2161.96</ele>
        <time>2022-06-30T11:37:06.000Z</time>
      </trkpt>
      <trkpt lat="44.96992" lon="5.84311">
        <ele>2158.83</ele>
        <time>2022-06-30T11:37:16.000Z</time>
      </trkpt>
      <trkpt lat="44.96994" lon="5.84296">
        <ele>2157.42</ele>
        <time>2022-06-30T11:37:26.000Z</time>
      </trkpt>
      <trkpt lat="44.96996" lon="5.84284">
        <ele>2158.71</ele>
        <time>2022-06-30T11:37:36.000Z</time>
      </trkpt>
      <trkpt lat="44.97002" lon="5.84282">
        <ele>2155.58</ele>
        <time>2022-06-30T11:37:46.000Z</time>
      </trkpt>
      <trkpt lat="44.97006" lon="5.84286">
        <ele>2150.46</ele>
        <time>2022-06-30T11:37:56.000Z</time>
      </trkpt>
      <trkpt lat="44.97008" lon="5.84288">
        <ele>2149.33</ele>
        <time>2022-06-30T11:38:06.000Z</time>
      </trkpt>
      <trkpt lat="44.97008" lon="5.84284">
        <ele>2148.72</ele>
        <time>2022-06-30T11:38:16.000Z</time>
      </trkpt>
      <trkpt lat="44.97009" lon="5.84283">
        <ele>2149.09</ele>
        <time>2022-06-30T11:38:38.000Z</time>
      </trkpt>
      <trkpt lat="44.9702" lon="5.84272">
        <ele>2145.14</ele>
        <time>2022-06-30T11:38:48.000Z</time>
      </trkpt>
      <trkpt lat="44.97027" lon="5.8426">
        <ele>2140.26</ele>
        <time>2022-06-30T11:38:58.000Z</time>
      </trkpt>
      <trkpt lat="44.97032" lon="5.84251">
        <ele>2140.73</ele>
        <time>2022-06-30T11:39:08.000Z</time>
      </trkpt>
      <trkpt lat="44.97038" lon="5.84248">
        <ele>2134.69</ele>
        <time>2022-06-30T11:39:18.000Z</time>
      </trkpt>
      <trkpt lat="44.97036" lon="5.84242">
        <ele>2134.13</ele>
        <time>2022-06-30T11:39:28.000Z</time>
      </trkpt>
      <trkpt lat="44.97036" lon="5.8424">
        <ele>2123.71</ele>
        <time>2022-06-30T11:39:38.000Z</time>
      </trkpt>
      <trkpt lat="44.97034" lon="5.84233">
        <ele>2122.73</ele>
        <time>2022-06-30T11:39:48.000Z</time>
      </trkpt>
      <trkpt lat="44.97033" lon="5.84235">
        <ele>2121.29</ele>
        <time>2022-06-30T11:39:58.000Z</time>
      </trkpt>
      <trkpt lat="44.97034" lon="5.84234">
        <ele>2121.63</ele>
        <time>2022-06-30T11:40:08.000Z</time>
      </trkpt>
      <trkpt lat="44.97035" lon="5.84232">
        <ele>2118.94</ele>
        <time>2022-06-30T11:40:24.000Z</time>
      </trkpt>
      <trkpt lat="44.97035" lon="5.84212">
        <ele>2117.38</ele>
        <time>2022-06-30T11:40:34.000Z</time>
      </trkpt>
      <trkpt lat="44.97031" lon="5.84206">
        <ele>2111.98</ele>
        <time>2022-06-30T11:40:44.000Z</time>
      </trkpt>
      <trkpt lat="44.97041" lon="5.84199">
        <ele>2102.66</ele>
        <time>2022-06-30T11:40:54.000Z</time>
      </trkpt>
      <trkpt lat="44.97048" lon="5.84182">
        <ele>2102.66</ele>
        <time>2022-06-30T11:41:04.000Z</time>
      </trkpt>
      <trkpt lat="44.9705" lon="5.84176">
        <ele>2104.27</ele>
        <time>2022-06-30T11:41:14.000Z</time>
      </trkpt>
      <trkpt lat="44.97048" lon="5.84169">
        <ele>2097.75</ele>
        <time>2022-06-30T11:41:24.000Z</time>
      </trkpt>
      <trkpt lat="44.97045" lon="5.84163">
        <ele>2095.91</ele>
        <time>2022-06-30T11:41:34.000Z</time>
      </trkpt>
      <trkpt lat="44.97043" lon="5.84167">
        <ele>2097.27</ele>
        <time>2022-06-30T11:41:44.000Z</time>
      </trkpt>
      <trkpt lat="44.97044" lon="5.84165">
        <ele>2094.96</ele>
        <time>2022-06-30T11:42:03.000Z</time>
      </trkpt>
      <trkpt lat="44.97046" lon="5.84157">
        <ele>2090.56</ele>
        <time>2022-06-30T11:42:13.000Z</time>
      </trkpt>
      <trkpt lat="44.97045" lon="5.84148">
        <ele>2086.41</ele>
        <time>2022-06-30T11:42:23.000Z</time>
      </trkpt>
      <trkpt lat="44.97052" lon="5.84138">
        <ele>2084.97</ele>
        <time>2022-06-30T11:42:33.000Z</time>
      </trkpt>
      <trkpt lat="44.9706" lon="5.84134">
        <ele>2083.61</ele>
        <time>2022-06-30T11:42:43.000Z</time>
      </trkpt>
      <trkpt lat="44.97062" lon="5.84131">
        <ele>2078.78</ele>
        <time>2022-06-30T11:42:53.000Z</time>
      </trkpt>
      <trkpt lat="44.97067" lon="5.84127">
        <ele>2075.46</ele>
        <time>2022-06-30T11:43:03.000Z</time>
      </trkpt>
      <trkpt lat="44.97072" lon="5.84118">
        <ele>2076.46</ele>
        <time>2022-06-30T11:43:13.000Z</time>
      </trkpt>
      <trkpt lat="44.97079" lon="5.84112">
        <ele>2071.17</ele>
        <time>2022-06-30T11:43:23.000Z</time>
      </trkpt>
      <trkpt lat="44.97083" lon="5.84108">
        <ele>2067.87</ele>
        <time>2022-06-30T11:43:33.000Z</time>
      </trkpt>
      <trkpt lat="44.9709" lon="5.84106">
        <ele>2068.26</ele>
        <time>2022-06-30T11:43:43.000Z</time>
      </trkpt>
      <trkpt lat="44.97099" lon="5.841">
        <ele>2062.86</ele>
        <time>2022-06-30T11:43:53.000Z</time>
      </trkpt>
      <trkpt lat="44.97105" lon="5.84098">
        <ele>2061.74</ele>
        <time>2022-06-30T11:44:03.000Z</time>
      </trkpt>
      <trkpt lat="44.97112" lon="5.84098">
        <ele>2058.01</ele>
        <time>2022-06-30T11:44:13.000Z</time>
      </trkpt>
      <trkpt lat="44.97123" lon="5.84103">
        <ele>2056.77</ele>
        <time>2022-06-30T11:44:23.000Z</time>
      </trkpt>
      <trkpt lat="44.97134" lon="5.84111">
        <ele>2055.48</ele>
        <time>2022-06-30T11:44:33.000Z</time>
      </trkpt>
      <trkpt lat="44.97141" lon="5.84106">
        <ele>2054.75</ele>
        <time>2022-06-30T11:44:43.000Z</time>
      </trkpt>
      <trkpt lat="44.97145" lon="5.84101">
        <ele>2053.41</ele>
        <time>2022-06-30T11:44:53.000Z</time>
      </trkpt>
      <trkpt lat="44.97142" lon="5.84105">
        <ele>2053.96</ele>
        <time>2022-06-30T11:45:03.000Z</time>
      </trkpt>
      <trkpt lat="44.97141" lon="5.84103">
        <ele>2054.45</ele>
        <time>2022-06-30T11:45:28.000Z</time>
      </trkpt>
      <trkpt lat="44.97135" lon="5.84079">
        <ele>2055.22</ele>
        <time>2022-06-30T11:45:38.000Z</time>
      </trkpt>
      <trkpt lat="44.97126" lon="5.84062">
        <ele>2052.77</ele>
        <time>2022-06-30T11:45:48.000Z</time>
      </trkpt>
      <trkpt lat="44.97118" lon="5.84053">
        <ele>2047.73</ele>
        <time>2022-06-30T11:45:58.000Z</time>
      </trkpt>
      <trkpt lat="44.97114" lon="5.84037">
        <ele>2048.35</ele>
        <time>2022-06-30T11:46:08.000Z</time>
      </trkpt>
      <trkpt lat="44.97111" lon="5.84027">
        <ele>2043.46</ele>
        <time>2022-06-30T11:46:18.000Z</time>
      </trkpt>
      <trkpt lat="44.97105" lon="5.84018">
        <ele>2042.57</ele>
        <time>2022-06-30T11:46:28.000Z</time>
      </trkpt>
      <trkpt lat="44.97101" lon="5.84011">
        <ele>2038.34</ele>
        <time>2022-06-30T11:46:38.000Z</time>
      </trkpt>
      <trkpt lat="44.97091" lon="5.83999">
        <ele>2037.8</ele>
        <time>2022-06-30T11:46:48.000Z</time>
      </trkpt>
      <trkpt lat="44.97092" lon="5.8399">
        <ele>2032.23</ele>
        <time>2022-06-30T11:46:58.000Z</time>
      </trkpt>
      <trkpt lat="44.97086" lon="5.83988">
        <ele>2032.63</ele>
        <time>2022-06-30T11:47:08.000Z</time>
      </trkpt>
      <trkpt lat="44.97083" lon="5.83988">
        <ele>2030.15</ele>
        <time>2022-06-30T11:47:18.000Z</time>
      </trkpt>
      <trkpt lat="44.97081" lon="5.83991">
        <ele>2029.36</ele>
        <time>2022-06-30T11:47:28.000Z</time>
      </trkpt>
      <trkpt lat="44.97081" lon="5.83989">
        <ele>2029.91</ele>
        <time>2022-06-30T11:47:38.000Z</time>
      </trkpt>
      <trkpt lat="44.97082" lon="5.8399">
        <ele>2030.16</ele>
        <time>2022-06-30T11:48:26.000Z</time>
      </trkpt>
      <trkpt lat="44.97088" lon="5.83991">
        <ele>2027.93</ele>
        <time>2022-06-30T11:48:36.000Z</time>
      </trkpt>
      <trkpt lat="44.97094" lon="5.8399">
        <ele>2028.55</ele>
        <time>2022-06-30T11:48:46.000Z</time>
      </trkpt>
      <trkpt lat="44.9711" lon="5.83992">
        <ele>2027.5</ele>
        <time>2022-06-30T11:48:56.000Z</time>
      </trkpt>
      <trkpt lat="44.97121" lon="5.83995">
        <ele>2024.82</ele>
        <time>2022-06-30T11:49:06.000Z</time>
      </trkpt>
      <trkpt lat="44.97131" lon="5.84001">
        <ele>2029.58</ele>
        <time>2022-06-30T11:49:16.000Z</time>
      </trkpt>
      <trkpt lat="44.97143" lon="5.84008">
        <ele>2031.02</ele>
        <time>2022-06-30T11:49:26.000Z</time>
      </trkpt>
      <trkpt lat="44.97143" lon="5.83995">
        <ele>2028.69</ele>
        <time>2022-06-30T11:49:36.000Z</time>
      </trkpt>
      <trkpt lat="44.9714" lon="5.83989">
        <ele>2025.93</ele>
        <time>2022-06-30T11:49:46.000Z</time>
      </trkpt>
      <trkpt lat="44.97133" lon="5.83981">
        <ele>2026.58</ele>
        <time>2022-06-30T11:49:56.000Z</time>
      </trkpt>
      <trkpt lat="44.97132" lon="5.83969">
        <ele>2023.97</ele>
        <time>2022-06-30T11:50:06.000Z</time>
      </trkpt>
      <trkpt lat="44.97126" lon="5.83955">
        <ele>2024.88</ele>
        <time>2022-06-30T11:50:16.000Z</time>
      </trkpt>
      <trkpt lat="44.97118" lon="5.83944">
        <ele>2025.01</ele>
        <time>2022-06-30T11:50:26.000Z</time>
      </trkpt>
      <trkpt lat="44.97121" lon="5.8394">
        <ele>2018.46</ele>
        <time>2022-06-30T11:50:36.000Z</time>
      </trkpt>
      <trkpt lat="44.97118" lon="5.83936">
        <ele>2010.92</ele>
        <time>2022-06-30T11:50:46.000Z</time>
      </trkpt>
      <trkpt lat="44.97111" lon="5.83925">
        <ele>2006.94</ele>
        <time>2022-06-30T11:50:56.000Z</time>
      </trkpt>
      <trkpt lat="44.97101" lon="5.83913">
        <ele>2005.03</ele>
        <time>2022-06-30T11:51:06.000Z</time>
      </trkpt>
      <trkpt lat="44.97099" lon="5.83908">
        <ele>2002.49</ele>
        <time>2022-06-30T11:51:16.000Z</time>
      </trkpt>
      <trkpt lat="44.97094" lon="5.83901">
        <ele>1999.54</ele>
        <time>2022-06-30T11:51:26.000Z</time>
      </trkpt>
      <trkpt lat="44.97085" lon="5.83896">
        <ele>2000.18</ele>
        <time>2022-06-30T11:51:36.000Z</time>
      </trkpt>
      <trkpt lat="44.97096" lon="5.83894">
        <ele>1994.77</ele>
        <time>2022-06-30T11:51:46.000Z</time>
      </trkpt>
      <trkpt lat="44.97107" lon="5.83894">
        <ele>1987.21</ele>
        <time>2022-06-30T11:51:56.000Z</time>
      </trkpt>
      <trkpt lat="44.97116" lon="5.83893">
        <ele>1981.71</ele>
        <time>2022-06-30T11:52:06.000Z</time>
      </trkpt>
      <trkpt lat="44.97122" lon="5.83892">
        <ele>1980.45</ele>
        <time>2022-06-30T11:52:16.000Z</time>
      </trkpt>
      <trkpt lat="44.97134" lon="5.83894">
        <ele>1972.65</ele>
        <time>2022-06-30T11:52:26.000Z</time>
      </trkpt>
      <trkpt lat="44.97149" lon="5.83898">
        <ele>1972.3</ele>
        <time>2022-06-30T11:52:36.000Z</time>
      </trkpt>
      <trkpt lat="44.9716" lon="5.83906">
        <ele>1969.94</ele>
        <time>2022-06-30T11:52:46.000Z</time>
      </trkpt>
      <trkpt lat="44.97175" lon="5.83909">
        <ele>1973.54</ele>
        <time>2022-06-30T11:52:56.000Z</time>
      </trkpt>
      <trkpt lat="44.97179" lon="5.83901">
        <ele>1970.62</ele>
        <time>2022-06-30T11:53:06.000Z</time>
      </trkpt>
      <trkpt lat="44.97174" lon="5.83891">
        <ele>1969.65</ele>
        <time>2022-06-30T11:53:16.000Z</time>
      </trkpt>
      <trkpt lat="44.97168" lon="5.83887">
        <ele>1968.27</ele>
        <time>2022-06-30T11:53:26.000Z</time>
      </trkpt>
      <trkpt lat="44.97163" lon="5.8388">
        <ele>1968.1</ele>
        <time>2022-06-30T11:53:36.000Z</time>
      </trkpt>
      <trkpt lat="44.97151" lon="5.83863">
        <ele>1970.23</ele>
        <time>2022-06-30T11:53:46.000Z</time>
      </trkpt>
      <trkpt lat="44.97147" lon="5.83856">
        <ele>1966.89</ele>
        <time>2022-06-30T11:53:56.000Z</time>
      </trkpt>
      <trkpt lat="44.97141" lon="5.83842">
        <ele>1965.75</ele>
        <time>2022-06-30T11:54:06.000Z</time>
      </trkpt>
      <trkpt lat="44.97149" lon="5.83843">
        <ele>1954.22</ele>
        <time>2022-06-30T11:54:16.000Z</time>
      </trkpt>
      <trkpt lat="44.97163" lon="5.83847">
        <ele>1951.72</ele>
        <time>2022-06-30T11:54:26.000Z</time>
      </trkpt>
      <trkpt lat="44.97178" lon="5.83851">
        <ele>1950.7</ele>
        <time>2022-06-30T11:54:36.000Z</time>
      </trkpt>
      <trkpt lat="44.97186" lon="5.83855">
        <ele>1949.87</ele>
        <time>2022-06-30T11:54:46.000Z</time>
      </trkpt>
      <trkpt lat="44.97192" lon="5.83862">
        <ele>1955.32</ele>
        <time>2022-06-30T11:54:56.000Z</time>
      </trkpt>
      <trkpt lat="44.97203" lon="5.83868">
        <ele>1954.08</ele>
        <time>2022-06-30T11:55:06.000Z</time>
      </trkpt>
      <trkpt lat="44.97212" lon="5.83878">
        <ele>1951</ele>
        <time>2022-06-30T11:55:16.000Z</time>
      </trkpt>
      <trkpt lat="44.9722" lon="5.83889">
        <ele>1944.94</ele>
        <time>2022-06-30T11:55:26.000Z</time>
      </trkpt>
      <trkpt lat="44.97236" lon="5.83899">
        <ele>1950.3</ele>
        <time>2022-06-30T11:55:36.000Z</time>
      </trkpt>
      <trkpt lat="44.97246" lon="5.83907">
        <ele>1946.72</ele>
        <time>2022-06-30T11:55:46.000Z</time>
      </trkpt>
      <trkpt lat="44.97252" lon="5.83911">
        <ele>1944.6</ele>
        <time>2022-06-30T11:55:56.000Z</time>
      </trkpt>
      <trkpt lat="44.9725" lon="5.83909">
        <ele>1944.84</ele>
        <time>2022-06-30T11:56:08.000Z</time>
      </trkpt>
      <trkpt lat="44.97243" lon="5.83897">
        <ele>1944.19</ele>
        <time>2022-06-30T11:56:18.000Z</time>
      </trkpt>
      <trkpt lat="44.97238" lon="5.83886">
        <ele>1938</ele>
        <time>2022-06-30T11:56:28.000Z</time>
      </trkpt>
      <trkpt lat="44.97234" lon="5.83875">
        <ele>1933.94</ele>
        <time>2022-06-30T11:56:38.000Z</time>
      </trkpt>
      <trkpt lat="44.97232" lon="5.83862">
        <ele>1932.87</ele>
        <time>2022-06-30T11:56:48.000Z</time>
      </trkpt>
      <trkpt lat="44.97225" lon="5.8385">
        <ele>1931.82</ele>
        <time>2022-06-30T11:56:58.000Z</time>
      </trkpt>
      <trkpt lat="44.97219" lon="5.83836">
        <ele>1930.53</ele>
        <time>2022-06-30T11:57:08.000Z</time>
      </trkpt>
      <trkpt lat="44.97213" lon="5.83824">
        <ele>1930.94</ele>
        <time>2022-06-30T11:57:18.000Z</time>
      </trkpt>
      <trkpt lat="44.9721" lon="5.83816">
        <ele>1930.08</ele>
        <time>2022-06-30T11:57:28.000Z</time>
      </trkpt>
      <trkpt lat="44.97205" lon="5.83803">
        <ele>1930.8</ele>
        <time>2022-06-30T11:57:38.000Z</time>
      </trkpt>
      <trkpt lat="44.97205" lon="5.838">
        <ele>1931.13</ele>
        <time>2022-06-30T11:57:48.000Z</time>
      </trkpt>
      <trkpt lat="44.97194" lon="5.83786">
        <ele>1932.25</ele>
        <time>2022-06-30T11:57:58.000Z</time>
      </trkpt>
      <trkpt lat="44.97186" lon="5.83769">
        <ele>1932.84</ele>
        <time>2022-06-30T11:58:08.000Z</time>
      </trkpt>
      <trkpt lat="44.97179" lon="5.83755">
        <ele>1929.16</ele>
        <time>2022-06-30T11:58:18.000Z</time>
      </trkpt>
      <trkpt lat="44.9717" lon="5.83742">
        <ele>1928.7</ele>
        <time>2022-06-30T11:58:28.000Z</time>
      </trkpt>
      <trkpt lat="44.97162" lon="5.8373">
        <ele>1928.78</ele>
        <time>2022-06-30T11:58:38.000Z</time>
      </trkpt>
      <trkpt lat="44.97154" lon="5.83726">
        <ele>1924.55</ele>
        <time>2022-06-30T11:58:48.000Z</time>
      </trkpt>
      <trkpt lat="44.97157" lon="5.83724">
        <ele>1915.05</ele>
        <time>2022-06-30T11:58:58.000Z</time>
      </trkpt>
      <trkpt lat="44.97171" lon="5.83727">
        <ele>1907.25</ele>
        <time>2022-06-30T11:59:08.000Z</time>
      </trkpt>
      <trkpt lat="44.97184" lon="5.83727">
        <ele>1904.9</ele>
        <time>2022-06-30T11:59:18.000Z</time>
      </trkpt>
      <trkpt lat="44.97191" lon="5.8373">
        <ele>1900.03</ele>
        <time>2022-06-30T11:59:28.000Z</time>
      </trkpt>
      <trkpt lat="44.97198" lon="5.83735">
        <ele>1892.1</ele>
        <time>2022-06-30T11:59:38.000Z</time>
      </trkpt>
      <trkpt lat="44.9721" lon="5.83741">
        <ele>1890.44</ele>
        <time>2022-06-30T11:59:48.000Z</time>
      </trkpt>
      <trkpt lat="44.97211" lon="5.8373">
        <ele>1890.77</ele>
        <time>2022-06-30T11:59:58.000Z</time>
      </trkpt>
      <trkpt lat="44.9721" lon="5.83717">
        <ele>1890.08</ele>
        <time>2022-06-30T12:00:08.000Z</time>
      </trkpt>
      <trkpt lat="44.97201" lon="5.83696">
        <ele>1893.76</ele>
        <time>2022-06-30T12:00:23.000Z</time>
      </trkpt>
      <trkpt lat="44.97188" lon="5.83688">
        <ele>1896.8</ele>
        <time>2022-06-30T12:00:33.000Z</time>
      </trkpt>
      <trkpt lat="44.9718" lon="5.83677">
        <ele>1897.93</ele>
        <time>2022-06-30T12:00:43.000Z</time>
      </trkpt>
      <trkpt lat="44.97182" lon="5.83678">
        <ele>1895.02</ele>
        <time>2022-06-30T12:00:53.000Z</time>
      </trkpt>
      <trkpt lat="44.97179" lon="5.83674">
        <ele>1895.18</ele>
        <time>2022-06-30T12:01:03.000Z</time>
      </trkpt>
      <trkpt lat="44.97164" lon="5.83664">
        <ele>1898.4</ele>
        <time>2022-06-30T12:01:13.000Z</time>
      </trkpt>
      <trkpt lat="44.97156" lon="5.83656">
        <ele>1893.82</ele>
        <time>2022-06-30T12:01:23.000Z</time>
      </trkpt>
      <trkpt lat="44.97163" lon="5.83651">
        <ele>1887.31</ele>
        <time>2022-06-30T12:01:33.000Z</time>
      </trkpt>
      <trkpt lat="44.97164" lon="5.83647">
        <ele>1888</ele>
        <time>2022-06-30T12:01:43.000Z</time>
      </trkpt>
      <trkpt lat="44.97173" lon="5.83643">
        <ele>1882.33</ele>
        <time>2022-06-30T12:01:53.000Z</time>
      </trkpt>
      <trkpt lat="44.97185" lon="5.83641">
        <ele>1874.31</ele>
        <time>2022-06-30T12:02:03.000Z</time>
      </trkpt>
      <trkpt lat="44.97192" lon="5.83638">
        <ele>1869.09</ele>
        <time>2022-06-30T12:02:13.000Z</time>
      </trkpt>
      <trkpt lat="44.97204" lon="5.83642">
        <ele>1863.43</ele>
        <time>2022-06-30T12:02:23.000Z</time>
      </trkpt>
      <trkpt lat="44.97214" lon="5.83646">
        <ele>1860.95</ele>
        <time>2022-06-30T12:02:33.000Z</time>
      </trkpt>
      <trkpt lat="44.97217" lon="5.83626">
        <ele>1861.68</ele>
        <time>2022-06-30T12:02:43.000Z</time>
      </trkpt>
      <trkpt lat="44.97219" lon="5.83611">
        <ele>1860</ele>
        <time>2022-06-30T12:02:53.000Z</time>
      </trkpt>
      <trkpt lat="44.97217" lon="5.836">
        <ele>1863.35</ele>
        <time>2022-06-30T12:03:03.000Z</time>
      </trkpt>
      <trkpt lat="44.9721" lon="5.83585">
        <ele>1864.09</ele>
        <time>2022-06-30T12:03:13.000Z</time>
      </trkpt>
      <trkpt lat="44.972" lon="5.83572">
        <ele>1864.94</ele>
        <time>2022-06-30T12:03:27.000Z</time>
      </trkpt>
      <trkpt lat="44.97188" lon="5.83566">
        <ele>1871.24</ele>
        <time>2022-06-30T12:03:37.000Z</time>
      </trkpt>
      <trkpt lat="44.97186" lon="5.83567">
        <ele>1869.01</ele>
        <time>2022-06-30T12:03:47.000Z</time>
      </trkpt>
      <trkpt lat="44.97184" lon="5.83568">
        <ele>1868.1</ele>
        <time>2022-06-30T12:03:57.000Z</time>
      </trkpt>
      <trkpt lat="44.97182" lon="5.83569">
        <ele>1867.51</ele>
        <time>2022-06-30T12:04:07.000Z</time>
      </trkpt>
      <trkpt lat="44.97165" lon="5.83576">
        <ele>1871.29</ele>
        <time>2022-06-30T12:04:17.000Z</time>
      </trkpt>
      <trkpt lat="44.97144" lon="5.8358">
        <ele>1863.05</ele>
        <time>2022-06-30T12:04:27.000Z</time>
      </trkpt>
      <trkpt lat="44.9714" lon="5.83584">
        <ele>1859.66</ele>
        <time>2022-06-30T12:04:50.000Z</time>
      </trkpt>
      <trkpt lat="44.97139" lon="5.83584">
        <ele>1861.23</ele>
        <time>2022-06-30T12:05:03.000Z</time>
      </trkpt>
      <trkpt lat="44.97138" lon="5.83584">
        <ele>1862.28</ele>
        <time>2022-06-30T12:06:12.000Z</time>
      </trkpt>
      <trkpt lat="44.9711" lon="5.83601">
        <ele>1857.86</ele>
        <time>2022-06-30T12:06:22.000Z</time>
      </trkpt>
      <trkpt lat="44.97102" lon="5.83612">
        <ele>1857.15</ele>
        <time>2022-06-30T12:06:32.000Z</time>
      </trkpt>
      <trkpt lat="44.97084" lon="5.83604">
        <ele>1861.58</ele>
        <time>2022-06-30T12:06:50.000Z</time>
      </trkpt>
      <trkpt lat="44.97079" lon="5.83601">
        <ele>1865.31</ele>
        <time>2022-06-30T12:07:00.000Z</time>
      </trkpt>
      <trkpt lat="44.97074" lon="5.83596">
        <ele>1863.13</ele>
        <time>2022-06-30T12:07:10.000Z</time>
      </trkpt>
      <trkpt lat="44.97063" lon="5.83584">
        <ele>1860.82</ele>
        <time>2022-06-30T12:07:20.000Z</time>
      </trkpt>
      <trkpt lat="44.97046" lon="5.83581">
        <ele>1860.1</ele>
        <time>2022-06-30T12:07:30.000Z</time>
      </trkpt>
      <trkpt lat="44.97031" lon="5.83577">
        <ele>1853.51</ele>
        <time>2022-06-30T12:07:40.000Z</time>
      </trkpt>
      <trkpt lat="44.97016" lon="5.83568">
        <ele>1854.67</ele>
        <time>2022-06-30T12:07:50.000Z</time>
      </trkpt>
      <trkpt lat="44.97007" lon="5.83567">
        <ele>1854.27</ele>
        <time>2022-06-30T12:08:01.000Z</time>
      </trkpt>
      <trkpt lat="44.96992" lon="5.83554">
        <ele>1860.85</ele>
        <time>2022-06-30T12:08:11.000Z</time>
      </trkpt>
      <trkpt lat="44.96986" lon="5.83559">
        <ele>1856</ele>
        <time>2022-06-30T12:08:26.000Z</time>
      </trkpt>
      <trkpt lat="44.96983" lon="5.83564">
        <ele>1851.46</ele>
        <time>2022-06-30T12:08:36.000Z</time>
      </trkpt>
      <trkpt lat="44.96984" lon="5.83563">
        <ele>1850.45</ele>
        <time>2022-06-30T12:08:46.000Z</time>
      </trkpt>
      <trkpt lat="44.96985" lon="5.83564">
        <ele>1849.42</ele>
        <time>2022-06-30T12:09:06.000Z</time>
      </trkpt>
      <trkpt lat="44.97018" lon="5.83568">
        <ele>1834.47</ele>
        <time>2022-06-30T12:09:18.000Z</time>
      </trkpt>
      <trkpt lat="44.97047" lon="5.83569">
        <ele>1823.74</ele>
        <time>2022-06-30T12:09:28.000Z</time>
      </trkpt>
      <trkpt lat="44.97061" lon="5.83573">
        <ele>1809.41</ele>
        <time>2022-06-30T12:09:38.000Z</time>
      </trkpt>
      <trkpt lat="44.97069" lon="5.83576">
        <ele>1808.36</ele>
        <time>2022-06-30T12:09:48.000Z</time>
      </trkpt>
      <trkpt lat="44.97083" lon="5.83574">
        <ele>1807.04</ele>
        <time>2022-06-30T12:09:58.000Z</time>
      </trkpt>
      <trkpt lat="44.9709" lon="5.83572">
        <ele>1805.13</ele>
        <time>2022-06-30T12:10:08.000Z</time>
      </trkpt>
      <trkpt lat="44.97105" lon="5.83554">
        <ele>1805.06</ele>
        <time>2022-06-30T12:10:24.000Z</time>
      </trkpt>
      <trkpt lat="44.97113" lon="5.83548">
        <ele>1811</ele>
        <time>2022-06-30T12:10:34.000Z</time>
      </trkpt>
      <trkpt lat="44.97125" lon="5.83535">
        <ele>1819.61</ele>
        <time>2022-06-30T12:10:44.000Z</time>
      </trkpt>
      <trkpt lat="44.97136" lon="5.83519">
        <ele>1822.48</ele>
        <time>2022-06-30T12:10:54.000Z</time>
      </trkpt>
      <trkpt lat="44.97144" lon="5.83501">
        <ele>1823.22</ele>
        <time>2022-06-30T12:11:04.000Z</time>
      </trkpt>
      <trkpt lat="44.97148" lon="5.8349">
        <ele>1824.18</ele>
        <time>2022-06-30T12:11:14.000Z</time>
      </trkpt>
      <trkpt lat="44.97155" lon="5.83476">
        <ele>1825.23</ele>
        <time>2022-06-30T12:11:24.000Z</time>
      </trkpt>
      <trkpt lat="44.97159" lon="5.83468">
        <ele>1822.32</ele>
        <time>2022-06-30T12:11:34.000Z</time>
      </trkpt>
      <trkpt lat="44.97169" lon="5.83456">
        <ele>1812.2</ele>
        <time>2022-06-30T12:11:44.000Z</time>
      </trkpt>
      <trkpt lat="44.97182" lon="5.8345">
        <ele>1805.03</ele>
        <time>2022-06-30T12:11:54.000Z</time>
      </trkpt>
      <trkpt lat="44.97194" lon="5.83447">
        <ele>1802.54</ele>
        <time>2022-06-30T12:12:05.000Z</time>
      </trkpt>
      <trkpt lat="44.97206" lon="5.83439">
        <ele>1797.65</ele>
        <time>2022-06-30T12:12:15.000Z</time>
      </trkpt>
      <trkpt lat="44.97218" lon="5.83435">
        <ele>1793.02</ele>
        <time>2022-06-30T12:12:25.000Z</time>
      </trkpt>
      <trkpt lat="44.97225" lon="5.83419">
        <ele>1792.53</ele>
        <time>2022-06-30T12:12:35.000Z</time>
      </trkpt>
      <trkpt lat="44.97221" lon="5.83413">
        <ele>1796.02</ele>
        <time>2022-06-30T12:12:45.000Z</time>
      </trkpt>
      <trkpt lat="44.97213" lon="5.83416">
        <ele>1798.63</ele>
        <time>2022-06-30T12:12:55.000Z</time>
      </trkpt>
      <trkpt lat="44.97199" lon="5.83432">
        <ele>1799.03</ele>
        <time>2022-06-30T12:13:15.000Z</time>
      </trkpt>
      <trkpt lat="44.97182" lon="5.83431">
        <ele>1800.16</ele>
        <time>2022-06-30T12:13:25.000Z</time>
      </trkpt>
      <trkpt lat="44.97122" lon="5.83485">
        <ele>1794.72</ele>
        <time>2022-06-30T12:14:30.000Z</time>
      </trkpt>
      <trkpt lat="44.97111" lon="5.83488">
        <ele>1792.13</ele>
        <time>2022-06-30T12:14:41.000Z</time>
      </trkpt>
      <trkpt lat="44.97096" lon="5.83492">
        <ele>1792.78</ele>
        <time>2022-06-30T12:14:51.000Z</time>
      </trkpt>
      <trkpt lat="44.97091" lon="5.83489">
        <ele>1783.97</ele>
        <time>2022-06-30T12:15:01.000Z</time>
      </trkpt>
      <trkpt lat="44.97084" lon="5.83485">
        <ele>1781.1</ele>
        <time>2022-06-30T12:15:11.000Z</time>
      </trkpt>
      <trkpt lat="44.97071" lon="5.83485">
        <ele>1780.44</ele>
        <time>2022-06-30T12:15:25.000Z</time>
      </trkpt>
      <trkpt lat="44.97056" lon="5.83475">
        <ele>1777.37</ele>
        <time>2022-06-30T12:15:35.000Z</time>
      </trkpt>
      <trkpt lat="44.97045" lon="5.83471">
        <ele>1779.94</ele>
        <time>2022-06-30T12:15:46.000Z</time>
      </trkpt>
      <trkpt lat="44.97024" lon="5.83462">
        <ele>1782.76</ele>
        <time>2022-06-30T12:15:57.000Z</time>
      </trkpt>
      <trkpt lat="44.96983" lon="5.83427">
        <ele>1774.55</ele>
        <time>2022-06-30T12:16:48.000Z</time>
      </trkpt>
      <trkpt lat="44.96959" lon="5.83418">
        <ele>1771.18</ele>
        <time>2022-06-30T12:16:58.000Z</time>
      </trkpt>
      <trkpt lat="44.96925" lon="5.83409">
        <ele>1772.7</ele>
        <time>2022-06-30T12:17:20.000Z</time>
      </trkpt>
      <trkpt lat="44.96908" lon="5.83404">
        <ele>1773.2</ele>
        <time>2022-06-30T12:17:30.000Z</time>
      </trkpt>
      <trkpt lat="44.96897" lon="5.83401">
        <ele>1770.86</ele>
        <time>2022-06-30T12:17:40.000Z</time>
      </trkpt>
      <trkpt lat="44.96899" lon="5.83391">
        <ele>1771.12</ele>
        <time>2022-06-30T12:17:50.000Z</time>
      </trkpt>
      <trkpt lat="44.96897" lon="5.83387">
        <ele>1770.65</ele>
        <time>2022-06-30T12:18:08.000Z</time>
      </trkpt>
      <trkpt lat="44.96898" lon="5.83386">
        <ele>1767.91</ele>
        <time>2022-06-30T12:18:35.000Z</time>
      </trkpt>
      <trkpt lat="44.96978" lon="5.83378">
        <ele>1746.71</ele>
        <time>2022-06-30T12:19:16.000Z</time>
      </trkpt>
      <trkpt lat="44.96992" lon="5.83392">
        <ele>1748.15</ele>
        <time>2022-06-30T12:19:26.000Z</time>
      </trkpt>
      <trkpt lat="44.97008" lon="5.83414">
        <ele>1745.79</ele>
        <time>2022-06-30T12:19:37.000Z</time>
      </trkpt>
      <trkpt lat="44.97019" lon="5.83415">
        <ele>1745.32</ele>
        <time>2022-06-30T12:19:47.000Z</time>
      </trkpt>
      <trkpt lat="44.97027" lon="5.83413">
        <ele>1743.53</ele>
        <time>2022-06-30T12:19:57.000Z</time>
      </trkpt>
      <trkpt lat="44.97046" lon="5.83417">
        <ele>1745.39</ele>
        <time>2022-06-30T12:20:07.000Z</time>
      </trkpt>
      <trkpt lat="44.97062" lon="5.83407">
        <ele>1739.9</ele>
        <time>2022-06-30T12:20:17.000Z</time>
      </trkpt>
      <trkpt lat="44.97071" lon="5.83408">
        <ele>1744.87</ele>
        <time>2022-06-30T12:20:27.000Z</time>
      </trkpt>
      <trkpt lat="44.97084" lon="5.83411">
        <ele>1744.22</ele>
        <time>2022-06-30T12:20:37.000Z</time>
      </trkpt>
      <trkpt lat="44.97094" lon="5.83406">
        <ele>1741.69</ele>
        <time>2022-06-30T12:20:47.000Z</time>
      </trkpt>
      <trkpt lat="44.97104" lon="5.8339">
        <ele>1743.58</ele>
        <time>2022-06-30T12:20:57.000Z</time>
      </trkpt>
      <trkpt lat="44.97116" lon="5.83379">
        <ele>1743.22</ele>
        <time>2022-06-30T12:21:07.000Z</time>
      </trkpt>
      <trkpt lat="44.97126" lon="5.83364">
        <ele>1742.66</ele>
        <time>2022-06-30T12:21:17.000Z</time>
      </trkpt>
      <trkpt lat="44.97132" lon="5.83348">
        <ele>1746.53</ele>
        <time>2022-06-30T12:21:27.000Z</time>
      </trkpt>
      <trkpt lat="44.97139" lon="5.83325">
        <ele>1749.42</ele>
        <time>2022-06-30T12:21:46.000Z</time>
      </trkpt>
      <trkpt lat="44.97145" lon="5.83312">
        <ele>1748.24</ele>
        <time>2022-06-30T12:21:56.000Z</time>
      </trkpt>
      <trkpt lat="44.97149" lon="5.83303">
        <ele>1746.67</ele>
        <time>2022-06-30T12:22:06.000Z</time>
      </trkpt>
      <trkpt lat="44.97152" lon="5.83282">
        <ele>1753.55</ele>
        <time>2022-06-30T12:22:16.000Z</time>
      </trkpt>
      <trkpt lat="44.97156" lon="5.83259">
        <ele>1756.63</ele>
        <time>2022-06-30T12:22:26.000Z</time>
      </trkpt>
      <trkpt lat="44.97158" lon="5.83248">
        <ele>1760.89</ele>
        <time>2022-06-30T12:22:36.000Z</time>
      </trkpt>
      <trkpt lat="44.97167" lon="5.83233">
        <ele>1754.3</ele>
        <time>2022-06-30T12:22:46.000Z</time>
      </trkpt>
      <trkpt lat="44.9717" lon="5.83217">
        <ele>1752.86</ele>
        <time>2022-06-30T12:22:56.000Z</time>
      </trkpt>
      <trkpt lat="44.97163" lon="5.8323">
        <ele>1744.2</ele>
        <time>2022-06-30T12:23:06.000Z</time>
      </trkpt>
      <trkpt lat="44.97152" lon="5.83248">
        <ele>1740.45</ele>
        <time>2022-06-30T12:23:16.000Z</time>
      </trkpt>
      <trkpt lat="44.97144" lon="5.83273">
        <ele>1733.5</ele>
        <time>2022-06-30T12:23:26.000Z</time>
      </trkpt>
      <trkpt lat="44.97134" lon="5.83288">
        <ele>1729.88</ele>
        <time>2022-06-30T12:23:36.000Z</time>
      </trkpt>
      <trkpt lat="44.97123" lon="5.83314">
        <ele>1731.45</ele>
        <time>2022-06-30T12:23:46.000Z</time>
      </trkpt>
      <trkpt lat="44.97121" lon="5.83324">
        <ele>1730.69</ele>
        <time>2022-06-30T12:23:56.000Z</time>
      </trkpt>
      <trkpt lat="44.97112" lon="5.83332">
        <ele>1730.14</ele>
        <time>2022-06-30T12:24:06.000Z</time>
      </trkpt>
      <trkpt lat="44.97104" lon="5.83335">
        <ele>1728.23</ele>
        <time>2022-06-30T12:24:16.000Z</time>
      </trkpt>
      <trkpt lat="44.97096" lon="5.83325">
        <ele>1729.5</ele>
        <time>2022-06-30T12:24:26.000Z</time>
      </trkpt>
      <trkpt lat="44.97085" lon="5.83332">
        <ele>1725.08</ele>
        <time>2022-06-30T12:24:36.000Z</time>
      </trkpt>
      <trkpt lat="44.97073" lon="5.83334">
        <ele>1722.43</ele>
        <time>2022-06-30T12:24:46.000Z</time>
      </trkpt>
      <trkpt lat="44.97064" lon="5.83332">
        <ele>1720.69</ele>
        <time>2022-06-30T12:24:56.000Z</time>
      </trkpt>
      <trkpt lat="44.97055" lon="5.83325">
        <ele>1722.74</ele>
        <time>2022-06-30T12:25:06.000Z</time>
      </trkpt>
      <trkpt lat="44.97041" lon="5.83324">
        <ele>1723.05</ele>
        <time>2022-06-30T12:25:16.000Z</time>
      </trkpt>
      <trkpt lat="44.97022" lon="5.83315">
        <ele>1724.78</ele>
        <time>2022-06-30T12:25:31.000Z</time>
      </trkpt>
      <trkpt lat="44.97009" lon="5.83307">
        <ele>1729.47</ele>
        <time>2022-06-30T12:25:41.000Z</time>
      </trkpt>
      <trkpt lat="44.96993" lon="5.83297">
        <ele>1732.97</ele>
        <time>2022-06-30T12:25:51.000Z</time>
      </trkpt>
      <trkpt lat="44.96987" lon="5.83288">
        <ele>1732.23</ele>
        <time>2022-06-30T12:26:01.000Z</time>
      </trkpt>
      <trkpt lat="44.96969" lon="5.83269">
        <ele>1731.49</ele>
        <time>2022-06-30T12:26:19.000Z</time>
      </trkpt>
      <trkpt lat="44.96958" lon="5.83259">
        <ele>1722.35</ele>
        <time>2022-06-30T12:26:29.000Z</time>
      </trkpt>
      <trkpt lat="44.96945" lon="5.83251">
        <ele>1721.96</ele>
        <time>2022-06-30T12:26:40.000Z</time>
      </trkpt>
      <trkpt lat="44.96928" lon="5.83249">
        <ele>1721.84</ele>
        <time>2022-06-30T12:26:50.000Z</time>
      </trkpt>
      <trkpt lat="44.96923" lon="5.83239">
        <ele>1714.6</ele>
        <time>2022-06-30T12:27:00.000Z</time>
      </trkpt>
      <trkpt lat="44.96911" lon="5.83226">
        <ele>1712</ele>
        <time>2022-06-30T12:27:10.000Z</time>
      </trkpt>
      <trkpt lat="44.96895" lon="5.83229">
        <ele>1709.11</ele>
        <time>2022-06-30T12:27:20.000Z</time>
      </trkpt>
      <trkpt lat="44.96883" lon="5.83224">
        <ele>1709.66</ele>
        <time>2022-06-30T12:27:30.000Z</time>
      </trkpt>
      <trkpt lat="44.96869" lon="5.83219">
        <ele>1705.28</ele>
        <time>2022-06-30T12:27:40.000Z</time>
      </trkpt>
      <trkpt lat="44.96857" lon="5.83217">
        <ele>1705.71</ele>
        <time>2022-06-30T12:27:50.000Z</time>
      </trkpt>
      <trkpt lat="44.9685" lon="5.83214">
        <ele>1705.79</ele>
        <time>2022-06-30T12:28:00.000Z</time>
      </trkpt>
      <trkpt lat="44.96833" lon="5.83214">
        <ele>1704.61</ele>
        <time>2022-06-30T12:28:10.000Z</time>
      </trkpt>
      <trkpt lat="44.96821" lon="5.83215">
        <ele>1705.63</ele>
        <time>2022-06-30T12:28:20.000Z</time>
      </trkpt>
      <trkpt lat="44.96802" lon="5.83219">
        <ele>1699.18</ele>
        <time>2022-06-30T12:28:30.000Z</time>
      </trkpt>
      <trkpt lat="44.96786" lon="5.83218">
        <ele>1697.26</ele>
        <time>2022-06-30T12:28:40.000Z</time>
      </trkpt>
      <trkpt lat="44.96773" lon="5.83217">
        <ele>1697.39</ele>
        <time>2022-06-30T12:28:50.000Z</time>
      </trkpt>
      <trkpt lat="44.96774" lon="5.83201">
        <ele>1696.72</ele>
        <time>2022-06-30T12:29:00.000Z</time>
      </trkpt>
      <trkpt lat="44.9678" lon="5.83206">
        <ele>1694.75</ele>
        <time>2022-06-30T12:29:10.000Z</time>
      </trkpt>
      <trkpt lat="44.9679" lon="5.83207">
        <ele>1696.94</ele>
        <time>2022-06-30T12:29:20.000Z</time>
      </trkpt>
      <trkpt lat="44.9681" lon="5.83202">
        <ele>1687.65</ele>
        <time>2022-06-30T12:29:32.000Z</time>
      </trkpt>
      <trkpt lat="44.96823" lon="5.83198">
        <ele>1687.29</ele>
        <time>2022-06-30T12:29:42.000Z</time>
      </trkpt>
      <trkpt lat="44.96835" lon="5.83203">
        <ele>1679.27</ele>
        <time>2022-06-30T12:29:52.000Z</time>
      </trkpt>
      <trkpt lat="44.96849" lon="5.83203">
        <ele>1676.53</ele>
        <time>2022-06-30T12:30:02.000Z</time>
      </trkpt>
      <trkpt lat="44.9686" lon="5.83201">
        <ele>1674.47</ele>
        <time>2022-06-30T12:30:12.000Z</time>
      </trkpt>
      <trkpt lat="44.96873" lon="5.83204">
        <ele>1672.42</ele>
        <time>2022-06-30T12:30:22.000Z</time>
      </trkpt>
      <trkpt lat="44.96885" lon="5.83208">
        <ele>1668.59</ele>
        <time>2022-06-30T12:30:32.000Z</time>
      </trkpt>
      <trkpt lat="44.96902" lon="5.83205">
        <ele>1667.4</ele>
        <time>2022-06-30T12:30:42.000Z</time>
      </trkpt>
      <trkpt lat="44.96917" lon="5.83201">
        <ele>1666.59</ele>
        <time>2022-06-30T12:30:52.000Z</time>
      </trkpt>
      <trkpt lat="44.96932" lon="5.83204">
        <ele>1667.8</ele>
        <time>2022-06-30T12:31:02.000Z</time>
      </trkpt>
      <trkpt lat="44.96947" lon="5.83199">
        <ele>1673.36</ele>
        <time>2022-06-30T12:31:14.000Z</time>
      </trkpt>
      <trkpt lat="44.96954" lon="5.83197">
        <ele>1674.96</ele>
        <time>2022-06-30T12:31:24.000Z</time>
      </trkpt>
      <trkpt lat="44.96975" lon="5.83197">
        <ele>1674.67</ele>
        <time>2022-06-30T12:31:34.000Z</time>
      </trkpt>
      <trkpt lat="44.9699" lon="5.83198">
        <ele>1677.13</ele>
        <time>2022-06-30T12:31:44.000Z</time>
      </trkpt>
      <trkpt lat="44.97002" lon="5.83196">
        <ele>1672.07</ele>
        <time>2022-06-30T12:31:54.000Z</time>
      </trkpt>
      <trkpt lat="44.97017" lon="5.83199">
        <ele>1668.9</ele>
        <time>2022-06-30T12:32:04.000Z</time>
      </trkpt>
      <trkpt lat="44.97026" lon="5.83203">
        <ele>1666.65</ele>
        <time>2022-06-30T12:32:14.000Z</time>
      </trkpt>
      <trkpt lat="44.97035" lon="5.83195">
        <ele>1662.56</ele>
        <time>2022-06-30T12:32:24.000Z</time>
      </trkpt>
      <trkpt lat="44.97045" lon="5.83189">
        <ele>1660.47</ele>
        <time>2022-06-30T12:32:34.000Z</time>
      </trkpt>
      <trkpt lat="44.97055" lon="5.83182">
        <ele>1659.15</ele>
        <time>2022-06-30T12:32:44.000Z</time>
      </trkpt>
      <trkpt lat="44.97064" lon="5.83176">
        <ele>1656.49</ele>
        <time>2022-06-30T12:32:54.000Z</time>
      </trkpt>
      <trkpt lat="44.97069" lon="5.83163">
        <ele>1659.85</ele>
        <time>2022-06-30T12:33:04.000Z</time>
      </trkpt>
      <trkpt lat="44.97074" lon="5.83142">
        <ele>1662.65</ele>
        <time>2022-06-30T12:33:14.000Z</time>
      </trkpt>
      <trkpt lat="44.97083" lon="5.8312">
        <ele>1662.17</ele>
        <time>2022-06-30T12:33:24.000Z</time>
      </trkpt>
      <trkpt lat="44.97091" lon="5.83101">
        <ele>1667.25</ele>
        <time>2022-06-30T12:33:34.000Z</time>
      </trkpt>
      <trkpt lat="44.97101" lon="5.83094">
        <ele>1660.86</ele>
        <time>2022-06-30T12:33:44.000Z</time>
      </trkpt>
      <trkpt lat="44.97112" lon="5.83084">
        <ele>1656.75</ele>
        <time>2022-06-30T12:33:54.000Z</time>
      </trkpt>
      <trkpt lat="44.97125" lon="5.83077">
        <ele>1655.98</ele>
        <time>2022-06-30T12:34:04.000Z</time>
      </trkpt>
      <trkpt lat="44.97138" lon="5.83069">
        <ele>1653</ele>
        <time>2022-06-30T12:34:14.000Z</time>
      </trkpt>
      <trkpt lat="44.97149" lon="5.8306">
        <ele>1652.13</ele>
        <time>2022-06-30T12:34:24.000Z</time>
      </trkpt>
      <trkpt lat="44.97165" lon="5.8304">
        <ele>1649.33</ele>
        <time>2022-06-30T12:34:34.000Z</time>
      </trkpt>
      <trkpt lat="44.97175" lon="5.83041">
        <ele>1642.69</ele>
        <time>2022-06-30T12:34:44.000Z</time>
      </trkpt>
      <trkpt lat="44.97184" lon="5.83042">
        <ele>1640.01</ele>
        <time>2022-06-30T12:34:55.000Z</time>
      </trkpt>
      <trkpt lat="44.97196" lon="5.83038">
        <ele>1639.97</ele>
        <time>2022-06-30T12:35:05.000Z</time>
      </trkpt>
      <trkpt lat="44.97206" lon="5.83035">
        <ele>1637.85</ele>
        <time>2022-06-30T12:35:15.000Z</time>
      </trkpt>
      <trkpt lat="44.97224" lon="5.83024">
        <ele>1634.65</ele>
        <time>2022-06-30T12:35:25.000Z</time>
      </trkpt>
      <trkpt lat="44.97235" lon="5.83028">
        <ele>1629.74</ele>
        <time>2022-06-30T12:35:35.000Z</time>
      </trkpt>
      <trkpt lat="44.9725" lon="5.83033">
        <ele>1630.85</ele>
        <time>2022-06-30T12:35:45.000Z</time>
      </trkpt>
      <trkpt lat="44.97262" lon="5.83028">
        <ele>1628.71</ele>
        <time>2022-06-30T12:35:55.000Z</time>
      </trkpt>
      <trkpt lat="44.97276" lon="5.83029">
        <ele>1627.85</ele>
        <time>2022-06-30T12:36:05.000Z</time>
      </trkpt>
      <trkpt lat="44.97288" lon="5.83028">
        <ele>1625.2</ele>
        <time>2022-06-30T12:36:15.000Z</time>
      </trkpt>
      <trkpt lat="44.97331" lon="5.83022">
        <ele>1617.04</ele>
        <time>2022-06-30T12:36:40.000Z</time>
      </trkpt>
      <trkpt lat="44.97335" lon="5.83022">
        <ele>1615.41</ele>
        <time>2022-06-30T12:36:50.000Z</time>
      </trkpt>
      <trkpt lat="44.9735" lon="5.83022">
        <ele>1619.94</ele>
        <time>2022-06-30T12:37:00.000Z</time>
      </trkpt>
      <trkpt lat="44.97361" lon="5.83029">
        <ele>1623.12</ele>
        <time>2022-06-30T12:37:10.000Z</time>
      </trkpt>
      <trkpt lat="44.97371" lon="5.83039">
        <ele>1623.66</ele>
        <time>2022-06-30T12:37:20.000Z</time>
      </trkpt>
      <trkpt lat="44.97379" lon="5.83051">
        <ele>1619.78</ele>
        <time>2022-06-30T12:37:30.000Z</time>
      </trkpt>
      <trkpt lat="44.97389" lon="5.83064">
        <ele>1625.05</ele>
        <time>2022-06-30T12:37:40.000Z</time>
      </trkpt>
      <trkpt lat="44.97405" lon="5.83072">
        <ele>1625.14</ele>
        <time>2022-06-30T12:37:50.000Z</time>
      </trkpt>
      <trkpt lat="44.97405" lon="5.83079">
        <ele>1624.24</ele>
        <time>2022-06-30T12:38:00.000Z</time>
      </trkpt>
      <trkpt lat="44.97407" lon="5.83083">
        <ele>1625.97</ele>
        <time>2022-06-30T12:38:10.000Z</time>
      </trkpt>
      <trkpt lat="44.97406" lon="5.83096">
        <ele>1619.54</ele>
        <time>2022-06-30T12:38:20.000Z</time>
      </trkpt>
      <trkpt lat="44.97412" lon="5.83112">
        <ele>1620.15</ele>
        <time>2022-06-30T12:38:30.000Z</time>
      </trkpt>
      <trkpt lat="44.97414" lon="5.83114">
        <ele>1620.72</ele>
        <time>2022-06-30T12:38:40.000Z</time>
      </trkpt>
      <trkpt lat="44.97416" lon="5.83115">
        <ele>1622.17</ele>
        <time>2022-06-30T12:38:50.000Z</time>
      </trkpt>
      <trkpt lat="44.97424" lon="5.83115">
        <ele>1625.87</ele>
        <time>2022-06-30T12:39:00.000Z</time>
      </trkpt>
      <trkpt lat="44.97436" lon="5.83132">
        <ele>1618.76</ele>
        <time>2022-06-30T12:39:10.000Z</time>
      </trkpt>
      <trkpt lat="44.97397" lon="5.82993">
        <ele>1598.28</ele>
        <time>2022-06-30T12:41:00.000Z</time>
      </trkpt>
      <trkpt lat="44.97382" lon="5.82978">
        <ele>1594.42</ele>
        <time>2022-06-30T12:41:10.000Z</time>
      </trkpt>
      <trkpt lat="44.97379" lon="5.82968">
        <ele>1596.05</ele>
        <time>2022-06-30T12:41:20.000Z</time>
      </trkpt>
      <trkpt lat="44.97357" lon="5.82958">
        <ele>1593.83</ele>
        <time>2022-06-30T12:41:45.000Z</time>
      </trkpt>
      <trkpt lat="44.9735" lon="5.82952">
        <ele>1590.79</ele>
        <time>2022-06-30T12:42:00.000Z</time>
      </trkpt>
      <trkpt lat="44.97322" lon="5.82912">
        <ele>1595.28</ele>
        <time>2022-06-30T12:42:19.000Z</time>
      </trkpt>
      <trkpt lat="44.97312" lon="5.82903">
        <ele>1597.53</ele>
        <time>2022-06-30T12:42:29.000Z</time>
      </trkpt>
      <trkpt lat="44.97302" lon="5.82898">
        <ele>1582.91</ele>
        <time>2022-06-30T12:42:39.000Z</time>
      </trkpt>
      <trkpt lat="44.97314" lon="5.82908">
        <ele>1586.39</ele>
        <time>2022-06-30T12:42:49.000Z</time>
      </trkpt>
      <trkpt lat="44.97324" lon="5.82908">
        <ele>1584</ele>
        <time>2022-06-30T12:42:59.000Z</time>
      </trkpt>
      <trkpt lat="44.97336" lon="5.82909">
        <ele>1582.15</ele>
        <time>2022-06-30T12:43:09.000Z</time>
      </trkpt>
      <trkpt lat="44.9735" lon="5.82912">
        <ele>1582.23</ele>
        <time>2022-06-30T12:43:19.000Z</time>
      </trkpt>
      <trkpt lat="44.9735" lon="5.82908">
        <ele>1584.05</ele>
        <time>2022-06-30T12:43:36.000Z</time>
      </trkpt>
      <trkpt lat="44.97352" lon="5.82911">
        <ele>1581.84</ele>
        <time>2022-06-30T12:43:46.000Z</time>
      </trkpt>
      <trkpt lat="44.97362" lon="5.82906">
        <ele>1582.63</ele>
        <time>2022-06-30T12:43:56.000Z</time>
      </trkpt>
      <trkpt lat="44.97325" lon="5.8287">
        <ele>1573.86</ele>
        <time>2022-06-30T12:44:44.000Z</time>
      </trkpt>
      <trkpt lat="44.97319" lon="5.82851">
        <ele>1573.99</ele>
        <time>2022-06-30T12:44:56.000Z</time>
      </trkpt>
      <trkpt lat="44.97289" lon="5.82793">
        <ele>1575.52</ele>
        <time>2022-06-30T12:45:42.000Z</time>
      </trkpt>
      <trkpt lat="44.97278" lon="5.82775">
        <ele>1573.63</ele>
        <time>2022-06-30T12:45:57.000Z</time>
      </trkpt>
      <trkpt lat="44.9724" lon="5.82757">
        <ele>1559.85</ele>
        <time>2022-06-30T12:46:27.000Z</time>
      </trkpt>
      <trkpt lat="44.9723" lon="5.82748">
        <ele>1556.9</ele>
        <time>2022-06-30T12:46:37.000Z</time>
      </trkpt>
      <trkpt lat="44.97232" lon="5.82728">
        <ele>1533.09</ele>
        <time>2022-06-30T12:46:47.000Z</time>
      </trkpt>
      <trkpt lat="44.9723" lon="5.82714">
        <ele>1524.84</ele>
        <time>2022-06-30T12:46:57.000Z</time>
      </trkpt>
      <trkpt lat="44.97232" lon="5.82699">
        <ele>1512.76</ele>
        <time>2022-06-30T12:47:07.000Z</time>
      </trkpt>
      <trkpt lat="44.97234" lon="5.82679">
        <ele>1506.58</ele>
        <time>2022-06-30T12:47:17.000Z</time>
      </trkpt>
      <trkpt lat="44.97238" lon="5.8266">
        <ele>1506.48</ele>
        <time>2022-06-30T12:47:27.000Z</time>
      </trkpt>
      <trkpt lat="44.97238" lon="5.82639">
        <ele>1504.64</ele>
        <time>2022-06-30T12:47:37.000Z</time>
      </trkpt>
      <trkpt lat="44.9724" lon="5.82622">
        <ele>1504.16</ele>
        <time>2022-06-30T12:47:47.000Z</time>
      </trkpt>
      <trkpt lat="44.97245" lon="5.82608">
        <ele>1498.87</ele>
        <time>2022-06-30T12:47:59.000Z</time>
      </trkpt>
      <trkpt lat="44.9725" lon="5.82583">
        <ele>1498.93</ele>
        <time>2022-06-30T12:48:09.000Z</time>
      </trkpt>
      <trkpt lat="44.97256" lon="5.82554">
        <ele>1500.33</ele>
        <time>2022-06-30T12:48:19.000Z</time>
      </trkpt>
      <trkpt lat="44.97266" lon="5.82556">
        <ele>1501.74</ele>
        <time>2022-06-30T12:48:29.000Z</time>
      </trkpt>
      <trkpt lat="44.97278" lon="5.82559">
        <ele>1503.6</ele>
        <time>2022-06-30T12:48:39.000Z</time>
      </trkpt>
      <trkpt lat="44.97287" lon="5.82538">
        <ele>1508.9</ele>
        <time>2022-06-30T12:48:49.000Z</time>
      </trkpt>
      <trkpt lat="44.97288" lon="5.8252">
        <ele>1508.95</ele>
        <time>2022-06-30T12:48:59.000Z</time>
      </trkpt>
      <trkpt lat="44.97289" lon="5.82504">
        <ele>1507.86</ele>
        <time>2022-06-30T12:49:09.000Z</time>
      </trkpt>
      <trkpt lat="44.97285" lon="5.82485">
        <ele>1510.52</ele>
        <time>2022-06-30T12:49:19.000Z</time>
      </trkpt>
      <trkpt lat="44.97279" lon="5.82471">
        <ele>1509.28</ele>
        <time>2022-06-30T12:49:29.000Z</time>
      </trkpt>
      <trkpt lat="44.97272" lon="5.82455">
        <ele>1508.53</ele>
        <time>2022-06-30T12:49:39.000Z</time>
      </trkpt>
      <trkpt lat="44.97264" lon="5.82447">
        <ele>1503.47</ele>
        <time>2022-06-30T12:49:49.000Z</time>
      </trkpt>
      <trkpt lat="44.97265" lon="5.82446">
        <ele>1505.03</ele>
        <time>2022-06-30T12:49:59.000Z</time>
      </trkpt>
      <trkpt lat="44.97261" lon="5.82452">
        <ele>1497.97</ele>
        <time>2022-06-30T12:50:09.000Z</time>
      </trkpt>
      <trkpt lat="44.9726" lon="5.82453">
        <ele>1498.05</ele>
        <time>2022-06-30T12:50:19.000Z</time>
      </trkpt>
      <trkpt lat="44.97261" lon="5.82452">
        <ele>1498.88</ele>
        <time>2022-06-30T12:50:43.000Z</time>
      </trkpt>
      <trkpt lat="44.97261" lon="5.82452">
        <ele>1498.93</ele>
        <time>2022-06-30T12:51:34.000Z</time>
      </trkpt>
    </trkseg>
  </trk>
</gpx>